Observation data for Stinnett on 07/11/2018      Previous  Date       Current Mesonet Observations  Soil Data  Daily Summary Page  Observations in Plain Language
KST3 110500Z 19006KT 25/17 A3016 RMK A01 T02480174  RH  064%=      5-min Rain = 0
KST3 110501Z 18006KT 25/17 A3016 RMK A01 T02480174  RH  064%=      5-min Rain = 0
KST3 110502Z 19007KT 25/17 A3016 RMK A01 T02480174  RH  064%=      5-min Rain = 0
KST3 110503Z 18009KT 25/17 A3016 RMK A01 T02480174  RH  064%=      5-min Rain = 0
KST3 110504Z 19007KT 25/17 A3016 RMK A01 T02480174  RH  063%=      5-min Rain = 0
KST3 110505Z 19007KT 25/17 A3016 RMK A01 T02480174  RH  064%=      5-min Rain = 0
KST3 110506Z 18007KT 25/18 A3016 RMK A01 T02480175  RH  064%=      5-min Rain = 0
KST3 110507Z 18007KT 25/18 A3016 RMK A01 T02470175  RH  064%=      5-min Rain = 0
KST3 110508Z 18007KT 25/18 A3016 RMK A01 T02480175  RH  064%=      5-min Rain = 0
KST3 110509Z 18007KT 25/18 A3016 RMK A01 T02470175  RH  064%=      5-min Rain = 0
KST3 110510Z 19006KT 25/18 A3016 RMK A01 T02480175  RH  064%=      5-min Rain = 0
KST3 110511Z 19006KT 25/18 A3016 RMK A01 T02480175  RH  064%=      5-min Rain = 0
KST3 110512Z 19007KT 25/18 A3016 RMK A01 T02470175  RH  064%=      5-min Rain = 0
KST3 110513Z 18007KT 25/18 A3016 RMK A01 T02470175  RH  064%=      5-min Rain = 0
KST3 110514Z 19008KT 25/18 A3016 RMK A01 T02470175  RH  064%=      5-min Rain = 0
KST3 110515Z 18008KT 25/17 A3016 RMK A01 T02470174  RH  064%=      5-min Rain = 0
KST3 110516Z 18008KT 25/17 A3016 RMK A01 T02460174  RH  064%=      5-min Rain = 0
KST3 110517Z 18007KT 25/17 A3016 RMK A01 T02470174  RH  064%=      5-min Rain = 0
KST3 110518Z 18007KT 25/17 A3016 RMK A01 T02460174  RH  064%=      5-min Rain = 0
KST3 110519Z 18007KT 25/17 A3016 RMK A01 T02470174  RH  064%=      5-min Rain = 0
KST3 110520Z 18007KT 25/17 A3016 RMK A01 T02460174  RH  064%=      5-min Rain = 0
KST3 110521Z 18008KT 25/18 A3016 RMK A01 T02460175  RH  064%=      5-min Rain = 0
KST3 110522Z 18007KT 25/18 A3016 RMK A01 T02460175  RH  065%=      5-min Rain = 0
KST3 110523Z 18008KT 25/18 A3016 RMK A01 T02460175  RH  065%=      5-min Rain = 0
KST3 110524Z 18008KT 25/18 A3016 RMK A01 T02460175  RH  065%=      5-min Rain = 0
KST3 110525Z 18008KT 25/18 A3016 RMK A01 T02460175  RH  065%=      5-min Rain = 0
KST3 110526Z 18008KT 25/18 A3016 RMK A01 T02460175  RH  065%=      5-min Rain = 0
KST3 110527Z 18008KT 25/18 A3016 RMK A01 T02460175  RH  065%=      5-min Rain = 0
KST3 110528Z 18008KT 25/18 A3016 RMK A01 T02460175  RH  065%=      5-min Rain = 0
KST3 110529Z 18007KT 25/18 A3016 RMK A01 T02450175  RH  065%=      5-min Rain = 0
KST3 110530Z 17008KT 25/18 A3016 RMK A01 T02450176  RH  065%=      5-min Rain = 0
KST3 110531Z 18007KT 24/18 A3016 RMK A01 T02440175  RH  065%=      5-min Rain = 0
KST3 110532Z 18008KT 24/18 A3016 RMK A01 T02440175  RH  065%=      5-min Rain = 0
KST3 110533Z 19007KT 24/18 A3016 RMK A01 T02440176  RH  066%=      5-min Rain = 0
KST3 110534Z 19006KT 24/18 A3016 RMK A01 T02440175  RH  065%=      5-min Rain = 0
KST3 110535Z 19006KT 24/18 A3016 RMK A01 T02440175  RH  065%=      5-min Rain = 0
KST3 110536Z 19007KT 24/18 A3016 RMK A01 T02440175  RH  065%=      5-min Rain = 0
KST3 110537Z 20006KT 24/18 A3016 RMK A01 T02440175  RH  065%=      5-min Rain = 0
KST3 110538Z 22006KT 24/18 A3016 RMK A01 T02430175  RH  066%=      5-min Rain = 0
KST3 110539Z 23007KT 24/18 A3016 RMK A01 T02420176  RH  067%=      5-min Rain = 0
KST3 110540Z 23008KT 24/18 A3016 RMK A01 T02400176  RH  068%=      5-min Rain = 0
KST3 110541Z 24009KT 24/18 A3016 RMK A01 T02380176  RH  068%=      5-min Rain = 0
KST3 110542Z 25010KT 24/18 A3016 RMK A01 T02370176  RH  069%=      5-min Rain = 0
KST3 110543Z 25011KT 24/18 A3017 RMK A01 T02360177  RH  069%=      5-min Rain = 0
KST3 110544Z 26011KT 24/18 A3017 RMK A01 T02360177  RH  069%=      5-min Rain = 0
KST3 110545Z 27010KT 24/18 A3017 RMK A01 T02360177  RH  069%=      5-min Rain = 0
KST3 110546Z 28013KT 24/18 A3017 RMK A01 T02360179  RH  070%=      5-min Rain = 0
KST3 110547Z 28012KT 24/18 A3017 RMK A01 T02360182  RH  072%=      5-min Rain = 0
KST3 110548Z 28009KT 24/18 A3017 RMK A01 T02350182  RH  072%=      5-min Rain = 0
KST3 110549Z 28009KT 23/18 A3017 RMK A01 T02340182  RH  073%=      5-min Rain = 0
KST3 110550Z 27008KT 23/18 A3017 RMK A01 T02340182  RH  073%=      5-min Rain = 0
KST3 110551Z 27008KT 23/18 A3017 RMK A01 T02340182  RH  073%=      5-min Rain = 0
KST3 110552Z 26008KT 23/18 A3017 RMK A01 T02340182  RH  073%=      5-min Rain = 0
KST3 110553Z 26007KT 23/18 A3017 RMK A01 T02340183  RH  073%=      5-min Rain = 0
KST3 110554Z 26007KT 23/18 A3017 RMK A01 T02340183  RH  073%=      5-min Rain = 0
KST3 110555Z 26007KT 23/18 A3017 RMK A01 T02330182  RH  073%=      5-min Rain = 0
KST3 110556Z 25007KT 23/18 A3017 RMK A01 T02330182  RH  073%=      5-min Rain = 0
KST3 110557Z 25007KT 23/18 A3017 RMK A01 T02320181  RH  073%=      5-min Rain = 0
KST3 110558Z 25008KT 23/18 A3017 RMK A01 T02320181  RH  073%=      5-min Rain = 0
KST3 110559Z 25008KT 23/18 A3017 RMK A01 T02330181  RH  072%=      5-min Rain = 0
KST3 110600Z 25008KT 23/18 A3017 RMK A01 T02330180  RH  072%=      5-min Rain = 0
KST3 110601Z 26007KT 23/18 A3017 RMK A01 T02330180  RH  072%=      5-min Rain = 0
KST3 110602Z 26007KT 23/18 A3017 RMK A01 T02330180  RH  072%=      5-min Rain = 0
KST3 110603Z 26008KT 23/18 A3017 RMK A01 T02330180  RH  072%=      5-min Rain = 0
KST3 110604Z 26007KT 23/18 A3017 RMK A01 T02330180  RH  072%=      5-min Rain = 0
KST3 110605Z 26006KT 23/18 A3017 RMK A01 T02330181  RH  073%=      5-min Rain = 0
KST3 110606Z 26006KT 23/18 A3017 RMK A01 T02320180  RH  073%=      5-min Rain = 0
KST3 110607Z 27005KT 23/18 A3017 RMK A01 T02320181  RH  073%=      5-min Rain = 0
KST3 110608Z 26005KT 23/18 A3017 RMK A01 T02320181  RH  073%=      5-min Rain = 0
KST3 110609Z 27004KT 23/18 A3017 RMK A01 T02310181  RH  074%=      5-min Rain = 0
KST3 110610Z 27003KT 23/18 A3016 RMK A01 T02300182  RH  074%=      5-min Rain = 0
KST3 110611Z 26003KT 23/18 A3016 RMK A01 T02300181  RH  074%=      5-min Rain = 0
KST3 110612Z 21003KT 23/18 A3016 RMK A01 T02290181  RH  074%=      5-min Rain = 0
KST3 110613Z 20004KT 23/18 A3016 RMK A01 T02290181  RH  074%=      5-min Rain = 0
KST3 110614Z 21003KT 23/18 A3016 RMK A01 T02290181  RH  074%=      5-min Rain = 0
KST3 110615Z 23003KT 23/18 A3016 RMK A01 T02290180  RH  074%=      5-min Rain = 0
KST3 110616Z 22003KT 23/18 A3016 RMK A01 T02290179  RH  074%=      5-min Rain = 0
KST3 110617Z 25004KT 23/18 A3016 RMK A01 T02290180  RH  074%=      5-min Rain = 0
KST3 110618Z 25004KT 23/18 A3016 RMK A01 T02290180  RH  074%=      5-min Rain = 0
KST3 110619Z 24005KT 23/18 A3016 RMK A01 T02270179  RH  074%=      5-min Rain = 0
KST3 110620Z 25004KT 23/18 A3016 RMK A01 T02270179  RH  075%=      5-min Rain = 0
KST3 110621Z 26005KT 23/18 A3016 RMK A01 T02260179  RH  075%=      5-min Rain = 0
KST3 110622Z 26005KT 23/18 A3017 RMK A01 T02260179  RH  075%=      5-min Rain = 0
KST3 110623Z 26006KT 23/18 A3017 RMK A01 T02260178  RH  074%=      5-min Rain = 0
KST3 110624Z 26005KT 23/18 A3017 RMK A01 T02270177  RH  074%=      5-min Rain = 0
KST3 110625Z 27005KT 23/18 A3016 RMK A01 T02270177  RH  073%=      5-min Rain = 0
KST3 110626Z 28004KT 23/18 A3016 RMK A01 T02270177  RH  073%=      5-min Rain = 0
KST3 110627Z 27004KT 23/18 A3016 RMK A01 T02280178  RH  073%=      5-min Rain = 0
KST3 110628Z 26005KT 23/18 A3016 RMK A01 T02270177  RH  073%=      5-min Rain = 0
KST3 110629Z 26005KT 23/18 A3016 RMK A01 T02270175  RH  072%=      5-min Rain = 0
KST3 110630Z 26005KT 23/18 A3016 RMK A01 T02280175  RH  072%=      5-min Rain = 0
KST3 110631Z 27005KT 23/18 A3016 RMK A01 T02280175  RH  072%=      5-min Rain = 0
KST3 110632Z 27004KT 23/18 A3016 RMK A01 T02280175  RH  072%=      5-min Rain = 0
KST3 110633Z 28004KT 23/18 A3016 RMK A01 T02280175  RH  072%=      5-min Rain = 0
KST3 110634Z 27004KT 23/18 A3016 RMK A01 T02280175  RH  072%=      5-min Rain = 0
KST3 110635Z 27004KT 23/18 A3016 RMK A01 T02270175  RH  072%=      5-min Rain = 0
KST3 110636Z 27003KT 23/18 A3016 RMK A01 T02260175  RH  072%=      5-min Rain = 0
KST3 110637Z 28004KT 23/18 A3016 RMK A01 T02270175  RH  073%=      5-min Rain = 0
KST3 110638Z 27004KT 23/18 A3016 RMK A01 T02260177  RH  073%=      5-min Rain = 0
KST3 110639Z 27005KT 23/18 A3016 RMK A01 T02260176  RH  074%=      5-min Rain = 0
KST3 110640Z 26006KT 23/18 A3016 RMK A01 T02260176  RH  073%=      5-min Rain = 0
KST3 110641Z 26006KT 23/18 A3016 RMK A01 T02260176  RH  074%=      5-min Rain = 0
KST3 110642Z 26005KT 23/18 A3016 RMK A01 T02250176  RH  074%=      5-min Rain = 0
KST3 110643Z 28004KT 22/18 A3015 RMK A01 T02240176  RH  074%=      5-min Rain = 0
KST3 110644Z 27003KT 22/18 A3015 RMK A01 T02240176  RH  074%=      5-min Rain = 0
KST3 110645Z 25004KT 22/18 A3015 RMK A01 T02240175  RH  074%=      5-min Rain = 0
KST3 110646Z 24004KT 22/17 A3016 RMK A01 T02240174  RH  073%=      5-min Rain = 0
KST3 110647Z 24003KT 22/17 A3016 RMK A01 T02240174  RH  074%=      5-min Rain = 0
KST3 110648Z 23003KT 22/17 A3016 RMK A01 T02240174  RH  074%=      5-min Rain = 0
KST3 110649Z 23003KT 22/17 A3016 RMK A01 T02230174  RH  074%=      5-min Rain = 0
KST3 110650Z 23003KT 22/17 A3016 RMK A01 T02230174  RH  073%=      5-min Rain = 0
KST3 110651Z 23003KT 22/17 A3016 RMK A01 T02240173  RH  073%=      5-min Rain = 0
KST3 110652Z 23004KT 23/17 A3016 RMK A01 T02250174  RH  073%=      5-min Rain = 0
KST3 110653Z 23004KT 23/17 A3016 RMK A01 T02250174  RH  073%=      5-min Rain = 0
KST3 110654Z 24004KT 23/17 A3016 RMK A01 T02260174  RH  072%=      5-min Rain = 0
KST3 110655Z 24004KT 23/17 A3016 RMK A01 T02250174  RH  073%=      5-min Rain = 0
KST3 110656Z 23004KT 23/17 A3016 RMK A01 T02250174  RH  073%=      5-min Rain = 0
KST3 110657Z 22003KT 22/17 A3016 RMK A01 T02240174  RH  074%=      5-min Rain = 0
KST3 110658Z 22003KT 22/17 A3016 RMK A01 T02220174  RH  074%=      5-min Rain = 0
KST3 110659Z 21003KT 22/18 A3016 RMK A01 T02220175  RH  074%=      5-min Rain = 0
KST3 110700Z 20003KT 22/17 A3016 RMK A01 T02220174  RH  075%=      5-min Rain = 0
KST3 110701Z 20004KT 22/17 A3016 RMK A01 T02220174  RH  074%=      5-min Rain = 0
KST3 110702Z 19004KT 22/17 A3016 RMK A01 T02220173  RH  074%=      5-min Rain = 0
KST3 110703Z 18004KT 22/17 A3016 RMK A01 T02240173  RH  073%=      5-min Rain = 0
KST3 110704Z 18005KT 23/17 A3016 RMK A01 T02250173  RH  073%=      5-min Rain = 0
KST3 110705Z 18005KT 23/17 A3016 RMK A01 T02260173  RH  072%=      5-min Rain = 0
KST3 110706Z 18005KT 23/17 A3016 RMK A01 T02260173  RH  072%=      5-min Rain = 0
KST3 110707Z 19005KT 23/17 A3016 RMK A01 T02260173  RH  072%=      5-min Rain = 0
KST3 110708Z 18005KT 23/17 A3016 RMK A01 T02260173  RH  072%=      5-min Rain = 0
KST3 110709Z 18006KT 23/17 A3016 RMK A01 T02260173  RH  072%=      5-min Rain = 0
KST3 110710Z 19006KT 23/17 A3016 RMK A01 T02270173  RH  072%=      5-min Rain = 0
KST3 110711Z 18005KT 23/17 A3016 RMK A01 T02280173  RH  071%=      5-min Rain = 0
KST3 110712Z 19005KT 23/17 A3016 RMK A01 T02290174  RH  071%=      5-min Rain = 0
KST3 110713Z 19005KT 23/17 A3016 RMK A01 T02300174  RH  071%=      5-min Rain = 0
KST3 110714Z 19006KT 23/17 A3016 RMK A01 T02300173  RH  070%=      5-min Rain = 0
KST3 110715Z 19006KT 23/17 A3016 RMK A01 T02310173  RH  070%=      5-min Rain = 0
KST3 110716Z 19006KT 23/17 A3016 RMK A01 T02310174  RH  070%=      5-min Rain = 0
KST3 110717Z 19006KT 23/17 A3016 RMK A01 T02310173  RH  070%=      5-min Rain = 0
KST3 110718Z 19006KT 23/17 A3016 RMK A01 T02310174  RH  070%=      5-min Rain = 0
KST3 110719Z 19006KT 23/17 A3016 RMK A01 T02310174  RH  070%=      5-min Rain = 0
KST3 110720Z 18006KT 23/17 A3016 RMK A01 T02310174  RH  070%=      5-min Rain = 0
KST3 110721Z 18006KT 23/17 A3016 RMK A01 T02320174  RH  070%=      5-min Rain = 0
KST3 110722Z 18006KT 23/17 A3015 RMK A01 T02310174  RH  070%=      5-min Rain = 0
KST3 110723Z 18005KT 23/17 A3015 RMK A01 T02310174  RH  070%=      5-min Rain = 0
KST3 110724Z 18005KT 23/17 A3015 RMK A01 T02310174  RH  070%=      5-min Rain = 0
KST3 110725Z 18006KT 23/17 A3015 RMK A01 T02310174  RH  070%=      5-min Rain = 0
KST3 110726Z 18005KT 23/17 A3015 RMK A01 T02300174  RH  071%=      5-min Rain = 0
KST3 110727Z 18005KT 23/17 A3015 RMK A01 T02300174  RH  071%=      5-min Rain = 0
KST3 110728Z 18005KT 23/17 A3016 RMK A01 T02290174  RH  071%=      5-min Rain = 0
KST3 110729Z 18005KT 23/17 A3016 RMK A01 T02290174  RH  071%=      5-min Rain = 0
KST3 110730Z 18005KT 23/17 A3016 RMK A01 T02290174  RH  071%=      5-min Rain = 0
KST3 110731Z 18005KT 23/17 A3016 RMK A01 T02290174  RH  071%=      5-min Rain = 0
KST3 110732Z 18005KT 23/17 A3016 RMK A01 T02290174  RH  071%=      5-min Rain = 0
KST3 110733Z 17005KT 23/17 A3016 RMK A01 T02290174  RH  071%=      5-min Rain = 0
KST3 110734Z 17005KT 23/17 A3016 RMK A01 T02290174  RH  071%=      5-min Rain = 0
KST3 110735Z 17004KT 23/17 A3016 RMK A01 T02300174  RH  071%=      5-min Rain = 0
KST3 110736Z 17004KT 23/17 A3016 RMK A01 T02300174  RH  071%=      5-min Rain = 0
KST3 110737Z 17004KT 23/17 A3016 RMK A01 T02290174  RH  071%=      5-min Rain = 0
KST3 110738Z 18004KT 23/17 A3016 RMK A01 T02300174  RH  071%=      5-min Rain = 0
KST3 110739Z 18004KT 23/17 A3016 RMK A01 T02300174  RH  071%=      5-min Rain = 0
KST3 110740Z 17004KT 23/17 A3016 RMK A01 T02300174  RH  071%=      5-min Rain = 0
KST3 110741Z 18004KT 23/17 A3016 RMK A01 T02300174  RH  071%=      5-min Rain = 0
KST3 110742Z 17004KT 23/17 A3015 RMK A01 T02300174  RH  071%=      5-min Rain = 0
KST3 110743Z 18004KT 23/17 A3015 RMK A01 T02300174  RH  071%=      5-min Rain = 0
KST3 110744Z 18005KT 23/18 A3015 RMK A01 T02300175  RH  071%=      5-min Rain = 0
KST3 110745Z 17005KT 23/17 A3015 RMK A01 T02300174  RH  071%=      5-min Rain = 0
KST3 110746Z 17005KT 23/18 A3015 RMK A01 T02300175  RH  071%=      5-min Rain = 0
KST3 110747Z 17005KT 23/18 A3015 RMK A01 T02290175  RH  071%=      5-min Rain = 0
KST3 110748Z 17005KT 23/17 A3015 RMK A01 T02280174  RH  072%=      5-min Rain = 0
KST3 110749Z 17005KT 23/18 A3015 RMK A01 T02280175  RH  072%=      5-min Rain = 0
KST3 110750Z 17005KT 23/18 A3015 RMK A01 T02280175  RH  072%=      5-min Rain = 0
KST3 110751Z 17005KT 23/18 A3015 RMK A01 T02280175  RH  072%=      5-min Rain = 0
KST3 110752Z 16005KT 23/18 A3015 RMK A01 T02280175  RH  072%=      5-min Rain = 0
KST3 110753Z 16005KT 23/18 A3015 RMK A01 T02270175  RH  072%=      5-min Rain = 0
KST3 110754Z 16005KT 23/17 A3015 RMK A01 T02260174  RH  073%=      5-min Rain = 0
KST3 110755Z 16005KT 23/17 A3015 RMK A01 T02250174  RH  073%=      5-min Rain = 0
KST3 110756Z 17005KT 23/17 A3015 RMK A01 T02250174  RH  073%=      5-min Rain = 0
KST3 110757Z 16005KT 23/18 A3015 RMK A01 T02250175  RH  073%=      5-min Rain = 0
KST3 110758Z 16005KT 22/18 A3015 RMK A01 T02240175  RH  073%=      5-min Rain = 0
KST3 110759Z 16005KT 23/18 A3015 RMK A01 T02250175  RH  074%=      5-min Rain = 0
KST3 110800Z 17005KT 22/18 A3015 RMK A01 T02240175  RH  074%=      5-min Rain = 0
KST3 110801Z 17006KT 22/18 A3015 RMK A01 T02240175  RH  074%=      5-min Rain = 0
KST3 110802Z 17005KT 22/18 A3015 RMK A01 T02240175  RH  074%=      5-min Rain = 0
KST3 110803Z 17005KT 22/18 A3015 RMK A01 T02240175  RH  074%=      5-min Rain = 0
KST3 110804Z 17005KT 22/18 A3015 RMK A01 T02240175  RH  073%=      5-min Rain = 0
KST3 110805Z 17006KT 23/18 A3015 RMK A01 T02250175  RH  073%=      5-min Rain = 0
KST3 110806Z 17005KT 23/18 A3015 RMK A01 T02250175  RH  073%=      5-min Rain = 0
KST3 110807Z 17004KT 23/18 A3015 RMK A01 T02250175  RH  073%=      5-min Rain = 0
KST3 110808Z 17005KT 23/18 A3015 RMK A01 T02250175  RH  073%=      5-min Rain = 0
KST3 110809Z 17005KT 23/18 A3015 RMK A01 T02260175  RH  073%=      5-min Rain = 0
KST3 110810Z 17003KT 23/18 A3015 RMK A01 T02260175  RH  073%=      5-min Rain = 0
KST3 110811Z 17003KT 23/18 A3015 RMK A01 T02260175  RH  073%=      5-min Rain = 0
KST3 110812Z 17003KT 23/18 A3015 RMK A01 T02250175  RH  073%=      5-min Rain = 0
KST3 110813Z 17002KT 22/18 A3015 RMK A01 T02240175  RH  073%=      5-min Rain = 0
KST3 110814Z 18002KT 22/18 A3015 RMK A01 T02240175  RH  074%=      5-min Rain = 0
KST3 110815Z 18002KT 22/18 A3015 RMK A01 T02240175  RH  074%=      5-min Rain = 0
KST3 110816Z 18001KT 22/18 A3015 RMK A01 T02240175  RH  074%=      5-min Rain = 0
KST3 110817Z 19002KT 22/18 A3015 RMK A01 T02230175  RH  074%=      5-min Rain = 0
KST3 110818Z 19002KT 22/18 A3015 RMK A01 T02230175  RH  074%=      5-min Rain = 0
KST3 110819Z 18002KT 22/17 A3015 RMK A01 T02220174  RH  075%=      5-min Rain = 0
KST3 110820Z 17002KT 22/18 A3015 RMK A01 T02210175  RH  075%=      5-min Rain = 0
KST3 110821Z 18002KT 22/18 A3015 RMK A01 T02210175  RH  075%=      5-min Rain = 0
KST3 110822Z 17001KT 22/18 A3015 RMK A01 T02210175  RH  075%=      5-min Rain = 0
KST3 110823Z 17000KT 22/18 A3015 RMK A01 T02200175  RH  075%=      5-min Rain = 0
KST3 110824Z 00000KT 22/18 A3015 RMK A01 T02200175  RH  075%=      5-min Rain = 0
KST3 110825Z 17000KT 22/18 A3015 RMK A01 T02190175  RH  076%=      5-min Rain = 0
KST3 110826Z 18001KT 22/18 A3014 RMK A01 T02190175  RH  076%=      5-min Rain = 0
KST3 110827Z 17002KT 22/18 A3014 RMK A01 T02190175  RH  076%=      5-min Rain = 0
KST3 110828Z 17002KT 22/18 A3014 RMK A01 T02190175  RH  076%=      5-min Rain = 0
KST3 110829Z 17002KT 22/18 A3014 RMK A01 T02190175  RH  076%=      5-min Rain = 0
KST3 110830Z 16001KT 22/18 A3014 RMK A01 T02190175  RH  076%=      5-min Rain = 0
KST3 110831Z 16001KT 22/18 A3014 RMK A01 T02190176  RH  076%=      5-min Rain = 0
KST3 110832Z 17002KT 22/18 A3014 RMK A01 T02190176  RH  076%=      5-min Rain = 0
KST3 110833Z 16002KT 22/18 A3014 RMK A01 T02190175  RH  076%=      5-min Rain = 0
KST3 110834Z 13002KT 22/18 A3014 RMK A01 T02190175  RH  076%=      5-min Rain = 0
KST3 110835Z 11004KT 22/18 A3014 RMK A01 T02180175  RH  076%=      5-min Rain = 0
KST3 110836Z 12003KT 22/17 A3014 RMK A01 T02170174  RH  077%=      5-min Rain = 0
KST3 110837Z 13003KT 22/17 A3014 RMK A01 T02150174  RH  077%=      5-min Rain = 0
KST3 110838Z 12003KT 21/17 A3014 RMK A01 T02140174  RH  078%=      5-min Rain = 0
KST3 110839Z 12003KT 21/17 A3014 RMK A01 T02140174  RH  078%=      5-min Rain = 0
KST3 110840Z 12002KT 21/17 A3014 RMK A01 T02130174  RH  078%=      5-min Rain = 0
KST3 110841Z 12002KT 21/17 A3014 RMK A01 T02130174  RH  079%=      5-min Rain = 0
KST3 110842Z 12002KT 21/17 A3014 RMK A01 T02120174  RH  079%=      5-min Rain = 0
KST3 110843Z 12002KT 21/17 A3014 RMK A01 T02120174  RH  079%=      5-min Rain = 0
KST3 110844Z 12002KT 21/18 A3014 RMK A01 T02120175  RH  079%=      5-min Rain = 0
KST3 110845Z 12002KT 21/17 A3014 RMK A01 T02120174  RH  079%=      5-min Rain = 0
KST3 110846Z 12002KT 21/17 A3014 RMK A01 T02120174  RH  079%=      5-min Rain = 0
KST3 110847Z 12002KT 21/17 A3014 RMK A01 T02130174  RH  079%=      5-min Rain = 0
KST3 110848Z 12002KT 21/17 A3014 RMK A01 T02130174  RH  079%=      5-min Rain = 0
KST3 110849Z 12002KT 21/17 A3014 RMK A01 T02140174  RH  078%=      5-min Rain = 0
KST3 110850Z 12003KT 21/18 A3014 RMK A01 T02140175  RH  078%=      5-min Rain = 0
KST3 110851Z 11003KT 22/18 A3014 RMK A01 T02150175  RH  078%=      5-min Rain = 0
KST3 110852Z 11003KT 22/17 A3014 RMK A01 T02150174  RH  078%=      5-min Rain = 0
KST3 110853Z 11003KT 22/17 A3014 RMK A01 T02150174  RH  078%=      5-min Rain = 0
KST3 110854Z 11003KT 22/17 A3014 RMK A01 T02150174  RH  078%=      5-min Rain = 0
KST3 110855Z 11003KT 22/17 A3014 RMK A01 T02150174  RH  078%=      5-min Rain = 0
KST3 110856Z 11003KT 22/17 A3014 RMK A01 T02150174  RH  078%=      5-min Rain = 0
KST3 110857Z 10003KT 21/17 A3014 RMK A01 T02140174  RH  078%=      5-min Rain = 0
KST3 110858Z 10003KT 21/17 A3014 RMK A01 T02140174  RH  078%=      5-min Rain = 0
KST3 110859Z 11003KT 21/17 A3014 RMK A01 T02140173  RH  078%=      5-min Rain = 0
KST3 110900Z 11003KT 21/17 A3014 RMK A01 T02130173  RH  078%=      5-min Rain = 0
KST3 110901Z 12003KT 21/17 A3014 RMK A01 T02120173  RH  078%=      5-min Rain = 0
KST3 110902Z 12004KT 21/17 A3014 RMK A01 T02120173  RH  079%=      5-min Rain = 0
KST3 110903Z 12004KT 21/17 A3014 RMK A01 T02120174  RH  079%=      5-min Rain = 0
KST3 110904Z 13004KT 21/17 A3014 RMK A01 T02120174  RH  079%=      5-min Rain = 0
KST3 110905Z 13004KT 21/17 A3014 RMK A01 T02120174  RH  079%=      5-min Rain = 0
KST3 110906Z 13004KT 21/17 A3014 RMK A01 T02120174  RH  079%=      5-min Rain = 0
KST3 110907Z 13004KT 21/17 A3014 RMK A01 T02130174  RH  078%=      5-min Rain = 0
KST3 110908Z 13004KT 21/17 A3014 RMK A01 T02130174  RH  078%=      5-min Rain = 0
KST3 110909Z 13004KT 21/17 A3014 RMK A01 T02130174  RH  078%=      5-min Rain = 0
KST3 110910Z 13004KT 21/17 A3014 RMK A01 T02130174  RH  078%=      5-min Rain = 0
KST3 110911Z 14004KT 21/17 A3014 RMK A01 T02130174  RH  078%=      5-min Rain = 0
KST3 110912Z 14003KT 21/17 A3014 RMK A01 T02130174  RH  079%=      5-min Rain = 0
KST3 110913Z 14003KT 21/17 A3014 RMK A01 T02120174  RH  079%=      5-min Rain = 0
KST3 110914Z 14003KT 21/17 A3014 RMK A01 T02120174  RH  079%=      5-min Rain = 0
KST3 110915Z 14003KT 21/17 A3014 RMK A01 T02120174  RH  079%=      5-min Rain = 0
KST3 110916Z 14003KT 21/17 A3014 RMK A01 T02120174  RH  079%=      5-min Rain = 0
KST3 110917Z 15003KT 21/17 A3014 RMK A01 T02110174  RH  079%=      5-min Rain = 0
KST3 110918Z 15004KT 21/17 A3014 RMK A01 T02110174  RH  079%=      5-min Rain = 0
KST3 110919Z 15004KT 21/17 A3014 RMK A01 T02120174  RH  079%=      5-min Rain = 0
KST3 110920Z 15004KT 21/17 A3014 RMK A01 T02120173  RH  079%=      5-min Rain = 0
KST3 110921Z 15004KT 21/17 A3014 RMK A01 T02120174  RH  079%=      5-min Rain = 0
KST3 110922Z 15004KT 21/17 A3014 RMK A01 T02120173  RH  079%=      5-min Rain = 0
KST3 110923Z 15004KT 21/17 A3014 RMK A01 T02110173  RH  079%=      5-min Rain = 0
KST3 110924Z 15004KT 21/17 A3014 RMK A01 T02110173  RH  079%=      5-min Rain = 0
KST3 110925Z 15003KT 21/17 A3014 RMK A01 T02110173  RH  079%=      5-min Rain = 0
KST3 110926Z 15004KT 21/17 A3014 RMK A01 T02100173  RH  079%=      5-min Rain = 0
KST3 110927Z 15003KT 21/17 A3014 RMK A01 T02100173  RH  079%=      5-min Rain = 0
KST3 110928Z 15004KT 21/17 A3014 RMK A01 T02100173  RH  079%=      5-min Rain = 0
KST3 110929Z 16003KT 21/17 A3014 RMK A01 T02100173  RH  080%=      5-min Rain = 0
KST3 110930Z 16003KT 21/17 A3014 RMK A01 T02100173  RH  079%=      5-min Rain = 0
KST3 110931Z 16003KT 21/17 A3014 RMK A01 T02100173  RH  079%=      5-min Rain = 0
KST3 110932Z 16003KT 21/17 A3014 RMK A01 T02100173  RH  079%=      5-min Rain = 0
KST3 110933Z 16003KT 21/17 A3014 RMK A01 T02110173  RH  079%=      5-min Rain = 0
KST3 110934Z 16003KT 21/17 A3014 RMK A01 T02110173  RH  079%=      5-min Rain = 0
KST3 110935Z 16003KT 21/17 A3014 RMK A01 T02110173  RH  079%=      5-min Rain = 0
KST3 110936Z 17003KT 21/17 A3014 RMK A01 T02110173  RH  079%=      5-min Rain = 0
KST3 110937Z 17003KT 21/17 A3014 RMK A01 T02110173  RH  079%=      5-min Rain = 0
KST3 110938Z 18003KT 21/17 A3014 RMK A01 T02110173  RH  079%=      5-min Rain = 0
KST3 110939Z 18003KT 21/17 A3014 RMK A01 T02110173  RH  079%=      5-min Rain = 0
KST3 110940Z 19003KT 21/17 A3014 RMK A01 T02110173  RH  079%=      5-min Rain = 0
KST3 110941Z 19004KT 21/17 A3014 RMK A01 T02110173  RH  079%=      5-min Rain = 0
KST3 110942Z 19004KT 21/17 A3014 RMK A01 T02110173  RH  079%=      5-min Rain = 0
KST3 110943Z 19005KT 21/17 A3014 RMK A01 T02100173  RH  079%=      5-min Rain = 0
KST3 110944Z 20005KT 21/17 A3013 RMK A01 T02090172  RH  079%=      5-min Rain = 0
KST3 110945Z 20005KT 21/17 A3013 RMK A01 T02090172  RH  080%=      5-min Rain = 0
KST3 110946Z 20005KT 21/17 A3013 RMK A01 T02080172  RH  080%=      5-min Rain = 0
KST3 110947Z 20005KT 21/17 A3013 RMK A01 T02070172  RH  081%=      5-min Rain = 0
KST3 110948Z 21005KT 21/17 A3013 RMK A01 T02070173  RH  081%=      5-min Rain = 0
KST3 110949Z 21005KT 21/17 A3013 RMK A01 T02070172  RH  080%=      5-min Rain = 0
KST3 110950Z 21005KT 21/17 A3013 RMK A01 T02070172  RH  080%=      5-min Rain = 0
KST3 110951Z 21005KT 21/17 A3013 RMK A01 T02070173  RH  081%=      5-min Rain = 0
KST3 110952Z 20005KT 21/17 A3013 RMK A01 T02060172  RH  081%=      5-min Rain = 0
KST3 110953Z 20006KT 21/17 A3013 RMK A01 T02060172  RH  081%=      5-min Rain = 0
KST3 110954Z 20006KT 21/17 A3013 RMK A01 T02050172  RH  081%=      5-min Rain = 0
KST3 110955Z 20006KT 20/17 A3013 RMK A01 T02040172  RH  081%=      5-min Rain = 0
KST3 110956Z 20006KT 20/17 A3013 RMK A01 T02040172  RH  081%=      5-min Rain = 0
KST3 110957Z 20006KT 20/17 A3013 RMK A01 T02040172  RH  082%=      5-min Rain = 0
KST3 110958Z 21006KT 21/17 A3013 RMK A01 T02050172  RH  081%=      5-min Rain = 0
KST3 110959Z 21006KT 21/17 A3013 RMK A01 T02050172  RH  081%=      5-min Rain = 0
KST3 111000Z 21006KT 20/17 A3013 RMK A01 T02040172  RH  081%=      5-min Rain = 0
KST3 111001Z 21006KT 20/17 A3013 RMK A01 T02030171  RH  082%=      5-min Rain = 0
KST3 111002Z 21006KT 20/17 A3013 RMK A01 T02010170  RH  082%=      5-min Rain = 0
KST3 111003Z 21006KT 20/17 A3013 RMK A01 T02000170  RH  083%=      5-min Rain = 0
KST3 111004Z 21006KT 20/17 A3013 RMK A01 T01990170  RH  083%=      5-min Rain = 0
KST3 111005Z 21007KT 20/17 A3013 RMK A01 T01970170  RH  084%=      5-min Rain = 0
KST3 111006Z 21007KT 20/17 A3013 RMK A01 T01970170  RH  084%=      5-min Rain = 0
KST3 111007Z 21007KT 20/17 A3013 RMK A01 T01960170  RH  085%=      5-min Rain = 0
KST3 111008Z 21007KT 20/17 A3013 RMK A01 T01960170  RH  085%=      5-min Rain = 0
KST3 111009Z 21007KT 20/17 A3013 RMK A01 T01960170  RH  085%=      5-min Rain = 0
KST3 111010Z 21007KT 20/17 A3013 RMK A01 T01950170  RH  085%=      5-min Rain = 0
KST3 111011Z 21007KT 20/17 A3013 RMK A01 T01960171  RH  085%=      5-min Rain = 0
KST3 111012Z 21007KT 20/17 A3013 RMK A01 T01960171  RH  085%=      5-min Rain = 0
KST3 111013Z 21007KT 20/17 A3013 RMK A01 T01960171  RH  085%=      5-min Rain = 0
KST3 111014Z 21007KT 20/17 A3013 RMK A01 T01970170  RH  085%=      5-min Rain = 0
KST3 111015Z 21007KT 20/17 A3013 RMK A01 T01970171  RH  085%=      5-min Rain = 0
KST3 111016Z 21007KT 20/17 A3013 RMK A01 T01980171  RH  084%=      5-min Rain = 0
KST3 111017Z 21007KT 20/17 A3013 RMK A01 T01980171  RH  084%=      5-min Rain = 0
KST3 111018Z 21007KT 20/17 A3013 RMK A01 T01990171  RH  084%=      5-min Rain = 0
KST3 111019Z 21007KT 20/17 A3013 RMK A01 T01990170  RH  084%=      5-min Rain = 0
KST3 111020Z 21006KT 20/17 A3013 RMK A01 T01980170  RH  084%=      5-min Rain = 0
KST3 111021Z 21006KT 20/17 A3013 RMK A01 T01990170  RH  084%=      5-min Rain = 0
KST3 111022Z 22006KT 20/17 A3013 RMK A01 T01980170  RH  084%=      5-min Rain = 0
KST3 111023Z 22006KT 20/17 A3013 RMK A01 T01980171  RH  084%=      5-min Rain = 0
KST3 111024Z 22007KT 20/17 A3013 RMK A01 T01980170  RH  084%=      5-min Rain = 0
KST3 111025Z 22006KT 20/17 A3013 RMK A01 T01980170  RH  084%=      5-min Rain = 0
KST3 111026Z 22006KT 20/17 A3013 RMK A01 T01980171  RH  084%=      5-min Rain = 0
KST3 111027Z 22006KT 20/17 A3013 RMK A01 T01980171  RH  084%=      5-min Rain = 0
KST3 111028Z 22006KT 20/17 A3013 RMK A01 T01980170  RH  084%=      5-min Rain = 0
KST3 111029Z 22006KT 20/17 A3013 RMK A01 T01980170  RH  084%=      5-min Rain = 0
KST3 111030Z 22006KT 20/17 A3013 RMK A01 T01980170  RH  084%=      5-min Rain = 0
KST3 111031Z 22006KT 20/17 A3013 RMK A01 T01980170  RH  084%=      5-min Rain = 0
KST3 111032Z 22006KT 20/17 A3013 RMK A01 T01980170  RH  084%=      5-min Rain = 0
KST3 111033Z 21006KT 20/17 A3013 RMK A01 T01970170  RH  084%=      5-min Rain = 0
KST3 111034Z 21006KT 20/17 A3013 RMK A01 T01970169  RH  084%=      5-min Rain = 0
KST3 111035Z 21006KT 20/17 A3013 RMK A01 T01970169  RH  084%=      5-min Rain = 0
KST3 111036Z 21006KT 20/17 A3013 RMK A01 T01970169  RH  084%=      5-min Rain = 0
KST3 111037Z 20005KT 20/17 A3013 RMK A01 T01980169  RH  083%=      5-min Rain = 0
KST3 111038Z 20006KT 20/17 A3013 RMK A01 T01990169  RH  083%=      5-min Rain = 0
KST3 111039Z 20006KT 20/17 A3013 RMK A01 T02000169  RH  082%=      5-min Rain = 0
KST3 111040Z 19007KT 20/17 A3013 RMK A01 T02010169  RH  082%=      5-min Rain = 0
KST3 111041Z 19006KT 20/17 A3013 RMK A01 T02030169  RH  081%=      5-min Rain = 0
KST3 111042Z 19007KT 20/17 A3013 RMK A01 T02040169  RH  081%=      5-min Rain = 0
KST3 111043Z 20007KT 21/17 A3013 RMK A01 T02050169  RH  080%=      5-min Rain = 0
KST3 111044Z 20007KT 21/17 A3013 RMK A01 T02060168  RH  079%=      5-min Rain = 0
KST3 111045Z 20007KT 21/17 A3013 RMK A01 T02070168  RH  078%=      5-min Rain = 0
KST3 111046Z 20007KT 21/17 A3013 RMK A01 T02080168  RH  078%=      5-min Rain = 0
KST3 111047Z 20007KT 21/17 A3013 RMK A01 T02080168  RH  078%=      5-min Rain = 0
KST3 111048Z 20007KT 21/17 A3013 RMK A01 T02080168  RH  078%=      5-min Rain = 0
KST3 111049Z 20007KT 21/17 A3013 RMK A01 T02080168  RH  078%=      5-min Rain = 0
KST3 111050Z 20007KT 21/17 A3013 RMK A01 T02080168  RH  078%=      5-min Rain = 0
KST3 111051Z 20007KT 21/17 A3013 RMK A01 T02070168  RH  078%=      5-min Rain = 0
KST3 111052Z 20007KT 21/17 A3013 RMK A01 T02080168  RH  078%=      5-min Rain = 0
KST3 111053Z 20007KT 21/17 A3013 RMK A01 T02070168  RH  079%=      5-min Rain = 0
KST3 111054Z 20007KT 21/17 A3013 RMK A01 T02050168  RH  079%=      5-min Rain = 0
KST3 111055Z 20007KT 20/17 A3013 RMK A01 T02040168  RH  080%=      5-min Rain = 0
KST3 111056Z 20008KT 20/17 A3013 RMK A01 T02020168  RH  081%=      5-min Rain = 0
KST3 111057Z 20008KT 20/17 A3013 RMK A01 T02000167  RH  081%=      5-min Rain = 0
KST3 111058Z 21008KT 20/17 A3013 RMK A01 T01990167  RH  082%=      5-min Rain = 0
KST3 111059Z 21008KT 20/17 A3013 RMK A01 T01980166  RH  082%=      5-min Rain = 0
KST3 111100Z 21008KT 20/17 A3013 RMK A01 T01960166  RH  083%=      5-min Rain = 0
KST3 111101Z 20008KT 20/17 A3013 RMK A01 T01950166  RH  083%=      5-min Rain = 0
KST3 111102Z 20008KT 20/17 A3013 RMK A01 T01950166  RH  084%=      5-min Rain = 0
KST3 111103Z 20008KT 19/17 A3013 RMK A01 T01940166  RH  084%=      5-min Rain = 0
KST3 111104Z 20008KT 20/17 A3013 RMK A01 T01950166  RH  084%=      5-min Rain = 0
KST3 111105Z 20008KT 20/17 A3013 RMK A01 T01950167  RH  084%=      5-min Rain = 0
KST3 111106Z 20007KT 20/17 A3013 RMK A01 T01960167  RH  083%=      5-min Rain = 0
KST3 111107Z 20008KT 20/17 A3013 RMK A01 T01970167  RH  083%=      5-min Rain = 0
KST3 111108Z 20008KT 20/17 A3013 RMK A01 T01980167  RH  082%=      5-min Rain = 0
KST3 111109Z 20008KT 20/17 A3013 RMK A01 T01990167  RH  082%=      5-min Rain = 0
KST3 111110Z 20008KT 20/17 A3013 RMK A01 T02000167  RH  081%=      5-min Rain = 0
KST3 111111Z 20008KT 20/17 A3013 RMK A01 T02010167  RH  081%=      5-min Rain = 0
KST3 111112Z 20008KT 20/17 A3013 RMK A01 T02000167  RH  081%=      5-min Rain = 0
KST3 111113Z 20008KT 20/17 A3013 RMK A01 T02000167  RH  081%=      5-min Rain = 0
KST3 111114Z 20008KT 20/17 A3013 RMK A01 T01970166  RH  082%=      5-min Rain = 0
KST3 111115Z 21008KT 20/17 A3013 RMK A01 T01950165  RH  083%=      5-min Rain = 0
KST3 111116Z 21008KT 19/17 A3013 RMK A01 T01930165  RH  084%=      5-min Rain = 0
KST3 111117Z 21008KT 19/17 A3013 RMK A01 T01910165  RH  085%=      5-min Rain = 0
KST3 111118Z 21008KT 19/17 A3013 RMK A01 T01900165  RH  086%=      5-min Rain = 0
KST3 111119Z 21008KT 19/17 A3013 RMK A01 T01890165  RH  086%=      5-min Rain = 0
KST3 111120Z 21008KT 19/17 A3013 RMK A01 T01890165  RH  086%=      5-min Rain = 0
KST3 111121Z 21008KT 19/17 A3013 RMK A01 T01880165  RH  086%=      5-min Rain = 0
KST3 111122Z 21008KT 19/17 A3013 RMK A01 T01890166  RH  086%=      5-min Rain = 0
KST3 111123Z 21008KT 19/17 A3013 RMK A01 T01890166  RH  087%=      5-min Rain = 0
KST3 111124Z 21008KT 19/17 A3013 RMK A01 T01880166  RH  087%=      5-min Rain = 0
KST3 111125Z 21008KT 19/17 A3013 RMK A01 T01880166  RH  087%=      5-min Rain = 0
KST3 111126Z 21008KT 19/17 A3013 RMK A01 T01890166  RH  087%=      5-min Rain = 0
KST3 111127Z 21008KT 19/17 A3013 RMK A01 T01880166  RH  087%=      5-min Rain = 0
KST3 111128Z 21008KT 19/17 A3013 RMK A01 T01880165  RH  087%=      5-min Rain = 0
KST3 111129Z 21007KT 19/17 A3013 RMK A01 T01870165  RH  087%=      5-min Rain = 0
KST3 111130Z 21007KT 19/17 A3013 RMK A01 T01870166  RH  087%=      5-min Rain = 0
KST3 111131Z 21007KT 19/17 A3013 RMK A01 T01860165  RH  087%=      5-min Rain = 0
KST3 111132Z 21007KT 19/17 A3013 RMK A01 T01870166  RH  087%=      5-min Rain = 0
KST3 111133Z 21007KT 19/17 A3013 RMK A01 T01860165  RH  088%=      5-min Rain = 0
KST3 111134Z 21007KT 19/17 A3013 RMK A01 T01860166  RH  088%=      5-min Rain = 0
KST3 111135Z 21007KT 19/17 A3013 RMK A01 T01860165  RH  088%=      5-min Rain = 0
KST3 111136Z 21007KT 19/17 A3013 RMK A01 T01860165  RH  088%=      5-min Rain = 0
KST3 111137Z 21007KT 19/17 A3013 RMK A01 T01860165  RH  088%=      5-min Rain = 0
KST3 111138Z 21007KT 19/17 A3013 RMK A01 T01860165  RH  088%=      5-min Rain = 0
KST3 111139Z 21007KT 19/17 A3013 RMK A01 T01860166  RH  088%=      5-min Rain = 0
KST3 111140Z 21007KT 19/17 A3013 RMK A01 T01860165  RH  088%=      5-min Rain = 0
KST3 111141Z 21007KT 19/17 A3013 RMK A01 T01860165  RH  087%=      5-min Rain = 0
KST3 111142Z 21007KT 19/17 A3013 RMK A01 T01860165  RH  087%=      5-min Rain = 0
KST3 111143Z 21007KT 19/17 A3013 RMK A01 T01870165  RH  087%=      5-min Rain = 0
KST3 111144Z 21007KT 19/17 A3013 RMK A01 T01870165  RH  087%=      5-min Rain = 0
KST3 111145Z 21007KT 19/17 A3013 RMK A01 T01870165  RH  087%=      5-min Rain = 0
KST3 111146Z 21007KT 19/17 A3013 RMK A01 T01880165  RH  087%=      5-min Rain = 0
KST3 111147Z 21007KT 19/17 A3013 RMK A01 T01880165  RH  086%=      5-min Rain = 0
KST3 111148Z 20007KT 19/17 A3013 RMK A01 T01890166  RH  086%=      5-min Rain = 0
KST3 111149Z 20007KT 19/17 A3013 RMK A01 T01900166  RH  086%=      5-min Rain = 0
KST3 111150Z 20007KT 19/17 A3013 RMK A01 T01910166  RH  086%=      5-min Rain = 0
KST3 111151Z 20007KT 19/17 A3013 RMK A01 T01910166  RH  085%=      5-min Rain = 0
KST3 111152Z 20007KT 19/17 A3013 RMK A01 T01930166  RH  085%=      5-min Rain = 0
KST3 111153Z 20007KT 19/17 A3013 RMK A01 T01930166  RH  084%=      5-min Rain = 0
KST3 111154Z 20007KT 19/17 A3013 RMK A01 T01940166  RH  084%=      5-min Rain = 0
KST3 111155Z 20006KT 19/17 A3013 RMK A01 T01940166  RH  084%=      5-min Rain = 0
KST3 111156Z 20006KT 20/17 A3013 RMK A01 T01950166  RH  084%=      5-min Rain = 0
KST3 111157Z 20006KT 20/17 A3013 RMK A01 T01950166  RH  083%=      5-min Rain = 0
KST3 111158Z 20006KT 20/17 A3013 RMK A01 T01950166  RH  083%=      5-min Rain = 0
KST3 111159Z 20006KT 20/17 A3013 RMK A01 T01960166  RH  083%=      5-min Rain = 0
KST3 111200Z 20006KT 20/17 A3013 RMK A01 T01960166  RH  083%=      5-min Rain = 0
KST3 111201Z 20006KT 20/17 A3013 RMK A01 T01960166  RH  083%=      5-min Rain = 0
KST3 111202Z 20006KT 20/17 A3013 RMK A01 T01970166  RH  083%=      5-min Rain = 0
KST3 111203Z 20006KT 20/17 A3013 RMK A01 T01970166  RH  082%=      5-min Rain = 0
KST3 111204Z 20006KT 20/17 A3013 RMK A01 T01970166  RH  082%=      5-min Rain = 0
KST3 111205Z 20006KT 20/17 A3013 RMK A01 T01970166  RH  082%=      5-min Rain = 0
KST3 111206Z 20006KT 20/17 A3013 RMK A01 T01980166  RH  082%=      5-min Rain = 0
KST3 111207Z 20006KT 20/17 A3013 RMK A01 T01980166  RH  082%=      5-min Rain = 0
KST3 111208Z 20006KT 20/17 A3013 RMK A01 T01980166  RH  082%=      5-min Rain = 0
KST3 111209Z 20005KT 20/17 A3013 RMK A01 T01980166  RH  082%=      5-min Rain = 0
KST3 111210Z 20006KT 20/17 A3013 RMK A01 T01980166  RH  082%=      5-min Rain = 0
KST3 111211Z 20005KT 20/17 A3013 RMK A01 T01980166  RH  082%=      5-min Rain = 0
KST3 111212Z 20005KT 20/17 A3013 RMK A01 T01980166  RH  082%=      5-min Rain = 0
KST3 111213Z 20005KT 20/17 A3013 RMK A01 T01980166  RH  082%=      5-min Rain = 0
KST3 111214Z 20005KT 20/17 A3013 RMK A01 T01980166  RH  081%=      5-min Rain = 0
KST3 111215Z 20005KT 20/17 A3013 RMK A01 T01980166  RH  082%=      5-min Rain = 0
KST3 111216Z 20005KT 20/17 A3013 RMK A01 T01980166  RH  082%=      5-min Rain = 0
KST3 111217Z 20005KT 20/17 A3013 RMK A01 T01980165  RH  081%=      5-min Rain = 0
KST3 111218Z 20004KT 20/17 A3013 RMK A01 T01990166  RH  081%=      5-min Rain = 0
KST3 111219Z 20005KT 20/17 A3013 RMK A01 T01990166  RH  081%=      5-min Rain = 0
KST3 111220Z 20005KT 20/17 A3013 RMK A01 T02000166  RH  081%=      5-min Rain = 0
KST3 111221Z 20005KT 20/17 A3013 RMK A01 T02000166  RH  081%=      5-min Rain = 0
KST3 111222Z 20005KT 20/17 A3013 RMK A01 T02000166  RH  080%=      5-min Rain = 0
KST3 111223Z 20005KT 20/17 A3013 RMK A01 T02000166  RH  081%=      5-min Rain = 0
KST3 111224Z 20005KT 20/17 A3013 RMK A01 T02000166  RH  081%=      5-min Rain = 0
KST3 111225Z 20005KT 20/17 A3013 RMK A01 T02000166  RH  081%=      5-min Rain = 0
KST3 111226Z 20005KT 20/17 A3013 RMK A01 T01990166  RH  081%=      5-min Rain = 0
KST3 111227Z 21005KT 20/17 A3013 RMK A01 T01990166  RH  081%=      5-min Rain = 0
KST3 111228Z 20005KT 20/17 A3013 RMK A01 T01980166  RH  081%=      5-min Rain = 0
KST3 111229Z 21006KT 20/17 A3013 RMK A01 T01980166  RH  082%=      5-min Rain = 0
KST3 111230Z 21006KT 20/17 A3013 RMK A01 T01980166  RH  082%=      5-min Rain = 0
KST3 111231Z 21006KT 20/17 A3013 RMK A01 T01980166  RH  082%=      5-min Rain = 0
KST3 111232Z 21006KT 20/17 A3013 RMK A01 T01980166  RH  082%=      5-min Rain = 0
KST3 111233Z 21006KT 20/17 A3013 RMK A01 T01980166  RH  082%=      5-min Rain = 0
KST3 111234Z 21007KT 20/17 A3013 RMK A01 T01980166  RH  082%=      5-min Rain = 0
KST3 111235Z 21007KT 20/17 A3013 RMK A01 T01980167  RH  082%=      5-min Rain = 0
KST3 111236Z 21007KT 20/17 A3013 RMK A01 T01990167  RH  082%=      5-min Rain = 0
KST3 111237Z 21007KT 20/17 A3013 RMK A01 T02000168  RH  082%=      5-min Rain = 0
KST3 111238Z 21007KT 20/17 A3013 RMK A01 T02010169  RH  082%=      5-min Rain = 0
KST3 111239Z 21007KT 20/17 A3013 RMK A01 T02020169  RH  081%=      5-min Rain = 0
KST3 111240Z 21007KT 20/17 A3013 RMK A01 T02040170  RH  081%=      5-min Rain = 0
KST3 111241Z 21007KT 21/17 A3013 RMK A01 T02050169  RH  080%=      5-min Rain = 0
KST3 111242Z 21007KT 21/17 A3013 RMK A01 T02060169  RH  080%=      5-min Rain = 0
KST3 111243Z 21007KT 21/17 A3013 RMK A01 T02070169  RH  079%=      5-min Rain = 0
KST3 111244Z 21007KT 21/17 A3013 RMK A01 T02080169  RH  078%=      5-min Rain = 0
KST3 111245Z 21008KT 21/17 A3013 RMK A01 T02090169  RH  078%=      5-min Rain = 0
KST3 111246Z 21007KT 21/17 A3013 RMK A01 T02090168  RH  077%=      5-min Rain = 0
KST3 111247Z 21008KT 21/17 A3013 RMK A01 T02100168  RH  077%=      5-min Rain = 0
KST3 111248Z 22007KT 21/17 A3013 RMK A01 T02110168  RH  076%=      5-min Rain = 0
KST3 111249Z 21007KT 21/17 A3013 RMK A01 T02120168  RH  076%=      5-min Rain = 0
KST3 111250Z 21007KT 21/17 A3013 RMK A01 T02130169  RH  076%=      5-min Rain = 0
KST3 111251Z 21007KT 21/17 A3013 RMK A01 T02130168  RH  076%=      5-min Rain = 0
KST3 111252Z 21007KT 21/17 A3013 RMK A01 T02140169  RH  075%=      5-min Rain = 0
KST3 111253Z 21007KT 21/17 A3013 RMK A01 T02140168  RH  075%=      5-min Rain = 0
KST3 111254Z 22007KT 21/17 A3013 RMK A01 T02140169  RH  075%=      5-min Rain = 0
KST3 111255Z 22006KT 22/17 A3013 RMK A01 T02150169  RH  075%=      5-min Rain = 0
KST3 111256Z 21006KT 22/17 A3013 RMK A01 T02150169  RH  075%=      5-min Rain = 0
KST3 111257Z 21007KT 22/17 A3013 RMK A01 T02160169  RH  075%=      5-min Rain = 0
KST3 111258Z 22007KT 22/17 A3013 RMK A01 T02160168  RH  074%=      5-min Rain = 0
KST3 111259Z 21006KT 22/17 A3013 RMK A01 T02170169  RH  074%=      5-min Rain = 0
KST3 111300Z 21007KT 22/17 A3013 RMK A01 T02170170  RH  074%=      5-min Rain = 0
KST3 111301Z 21008KT 22/17 A3013 RMK A01 T02180170  RH  074%=      5-min Rain = 0
KST3 111302Z 21006KT 22/17 A3013 RMK A01 T02190170  RH  074%=      5-min Rain = 0
KST3 111303Z 21008KT 22/17 A3014 RMK A01 T02190171  RH  074%=      5-min Rain = 0
KST3 111304Z 20007KT 22/17 A3013 RMK A01 T02200170  RH  073%=      5-min Rain = 0
KST3 111305Z 20007KT 22/17 A3013 RMK A01 T02200170  RH  073%=      5-min Rain = 0
KST3 111306Z 20007KT 22/17 A3013 RMK A01 T02210171  RH  073%=      5-min Rain = 0
KST3 111307Z 20007KT 22/17 A3013 RMK A01 T02220170  RH  073%=      5-min Rain = 0
KST3 111308Z 20006KT 22/17 A3014 RMK A01 T02220171  RH  073%=      5-min Rain = 0
KST3 111309Z 19006KT 22/17 A3014 RMK A01 T02230171  RH  073%=      5-min Rain = 0
KST3 111310Z 19006KT 22/17 A3014 RMK A01 T02230172  RH  073%=      5-min Rain = 0
KST3 111311Z 19007KT 22/17 A3014 RMK A01 T02240171  RH  072%=      5-min Rain = 0
KST3 111312Z 19006KT 23/17 A3014 RMK A01 T02250171  RH  072%=      5-min Rain = 0
KST3 111313Z 19007KT 23/17 A3014 RMK A01 T02250172  RH  072%=      5-min Rain = 0
KST3 111314Z 18006KT 23/17 A3014 RMK A01 T02260172  RH  071%=      5-min Rain = 0
KST3 111315Z 19006KT 23/17 A3014 RMK A01 T02260173  RH  072%=      5-min Rain = 0
KST3 111316Z 20006KT 23/17 A3014 RMK A01 T02260171  RH  071%=      5-min Rain = 0
KST3 111317Z 19005KT 23/17 A3014 RMK A01 T02270172  RH  071%=      5-min Rain = 0
KST3 111318Z 19006KT 23/17 A3014 RMK A01 T02270172  RH  071%=      5-min Rain = 0
KST3 111319Z 19006KT 23/17 A3014 RMK A01 T02280173  RH  071%=      5-min Rain = 0
KST3 111320Z 19006KT 23/17 A3014 RMK A01 T02290172  RH  070%=      5-min Rain = 0
KST3 111321Z 19007KT 23/17 A3014 RMK A01 T02290172  RH  070%=      5-min Rain = 0
KST3 111322Z 19005KT 23/17 A3014 RMK A01 T02290172  RH  070%=      5-min Rain = 0
KST3 111323Z 19005KT 23/17 A3014 RMK A01 T02290173  RH  070%=      5-min Rain = 0
KST3 111324Z 20004KT 23/17 A3014 RMK A01 T02300174  RH  070%=      5-min Rain = 0
KST3 111325Z 19005KT 23/18 A3014 RMK A01 T02320175  RH  070%=      5-min Rain = 0
KST3 111326Z 18006KT 23/17 A3014 RMK A01 T02330174  RH  069%=      5-min Rain = 0
KST3 111327Z 18007KT 23/17 A3014 RMK A01 T02340173  RH  069%=      5-min Rain = 0
KST3 111328Z 18007KT 23/17 A3014 RMK A01 T02340172  RH  068%=      5-min Rain = 0
KST3 111329Z 19006KT 23/17 A3014 RMK A01 T02340173  RH  069%=      5-min Rain = 0
KST3 111330Z 18005KT 23/18 A3014 RMK A01 T02340175  RH  069%=      5-min Rain = 0
KST3 111331Z 18006KT 24/18 A3014 RMK A01 T02360175  RH  069%=      5-min Rain = 0
KST3 111332Z 18006KT 24/17 A3014 RMK A01 T02360174  RH  068%=      5-min Rain = 0
KST3 111333Z 19005KT 24/17 A3014 RMK A01 T02360174  RH  068%=      5-min Rain = 0
KST3 111334Z 18005KT 24/18 A3014 RMK A01 T02370176  RH  069%=      5-min Rain = 0
KST3 111335Z 17006KT 24/18 A3014 RMK A01 T02380175  RH  067%=      5-min Rain = 0
KST3 111336Z 18006KT 24/17 A3014 RMK A01 T02380174  RH  067%=      5-min Rain = 0
KST3 111337Z 17005KT 24/18 A3014 RMK A01 T02380176  RH  068%=      5-min Rain = 0
KST3 111338Z 18008KT 24/18 A3014 RMK A01 T02390176  RH  068%=      5-min Rain = 0
KST3 111339Z 18007KT 24/18 A3014 RMK A01 T02390175  RH  067%=      5-min Rain = 0
KST3 111340Z 17007KT 24/18 A3014 RMK A01 T02390175  RH  067%=      5-min Rain = 0
KST3 111341Z 17006KT 24/17 A3014 RMK A01 T02380174  RH  067%=      5-min Rain = 0
KST3 111342Z 17008KT 24/18 A3014 RMK A01 T02380175  RH  068%=      5-min Rain = 0
KST3 111343Z 16007KT 24/17 A3014 RMK A01 T02380174  RH  067%=      5-min Rain = 0
KST3 111344Z 16007KT 24/18 A3014 RMK A01 T02380175  RH  068%=      5-min Rain = 0
KST3 111345Z 16007KT 24/18 A3014 RMK A01 T02380175  RH  068%=      5-min Rain = 0
KST3 111346Z 16006KT 24/17 A3014 RMK A01 T02380174  RH  067%=      5-min Rain = 0
KST3 111347Z 16008KT 24/18 A3014 RMK A01 T02380175  RH  068%=      5-min Rain = 0
KST3 111348Z 16006KT 24/17 A3014 RMK A01 T02370174  RH  068%=      5-min Rain = 0
KST3 111349Z 16005KT 24/17 A3014 RMK A01 T02370174  RH  068%=      5-min Rain = 0
KST3 111350Z 17005KT 24/17 A3014 RMK A01 T02370174  RH  068%=      5-min Rain = 0
KST3 111351Z 17005KT 24/17 A3015 RMK A01 T02370174  RH  068%=      5-min Rain = 0
KST3 111352Z 17005KT 24/17 A3015 RMK A01 T02370174  RH  068%=      5-min Rain = 0
KST3 111353Z 18006KT 24/17 A3015 RMK A01 T02380174  RH  067%=      5-min Rain = 0
KST3 111354Z 17006KT 24/17 A3015 RMK A01 T02380174  RH  067%=      5-min Rain = 0
KST3 111355Z 17006KT 24/17 A3015 RMK A01 T02380173  RH  067%=      5-min Rain = 0
KST3 111356Z 17006KT 24/17 A3015 RMK A01 T02380173  RH  067%=      5-min Rain = 0
KST3 111357Z 17006KT 24/17 A3015 RMK A01 T02380174  RH  067%=      5-min Rain = 0
KST3 111358Z 18005KT 24/17 A3015 RMK A01 T02390174  RH  067%=      5-min Rain = 0
KST3 111359Z 17005KT 24/17 A3015 RMK A01 T02390174  RH  067%=      5-min Rain = 0
KST3 111400Z 18006KT 24/18 A3015 RMK A01 T02400175  RH  067%=      5-min Rain = 0
KST3 111401Z 20005KT 24/17 A3015 RMK A01 T02410173  RH  066%=      5-min Rain = 0
KST3 111402Z 18005KT 24/17 A3015 RMK A01 T02410174  RH  066%=      5-min Rain = 0
KST3 111403Z 18006KT 24/18 A3015 RMK A01 T02410175  RH  067%=      5-min Rain = 0
KST3 111404Z 19006KT 24/18 A3015 RMK A01 T02420176  RH  067%=      5-min Rain = 0
KST3 111405Z 19006KT 24/18 A3015 RMK A01 T02440177  RH  066%=      5-min Rain = 0
KST3 111406Z 20005KT 24/18 A3015 RMK A01 T02440176  RH  066%=      5-min Rain = 0
KST3 111407Z 20005KT 25/18 A3015 RMK A01 T02450177  RH  066%=      5-min Rain = 0
KST3 111408Z 20006KT 25/18 A3014 RMK A01 T02460177  RH  065%=      5-min Rain = 0
KST3 111409Z 22007KT 25/18 A3014 RMK A01 T02470178  RH  066%=      5-min Rain = 0
KST3 111410Z 22008KT 25/18 A3014 RMK A01 T02480176  RH  064%=      5-min Rain = 0
KST3 111411Z 21008KT 25/18 A3014 RMK A01 T02480177  RH  065%=      5-min Rain = 0
KST3 111412Z 21007KT 25/18 A3014 RMK A01 T02490176  RH  064%=      5-min Rain = 0
KST3 111413Z 21007KT 25/18 A3014 RMK A01 T02510179  RH  064%=      5-min Rain = 0
KST3 111414Z 21009KT 25/18 A3014 RMK A01 T02530177  RH  063%=      5-min Rain = 0
KST3 111415Z 20010KT 25/18 A3014 RMK A01 T02530176  RH  062%=      5-min Rain = 0
KST3 111416Z 21009KT 25/18 A3014 RMK A01 T02520175  RH  062%=      5-min Rain = 0
KST3 111417Z 21008KT 25/18 A3014 RMK A01 T02520176  RH  063%=      5-min Rain = 0
KST3 111418Z 22009KT 25/18 A3014 RMK A01 T02530178  RH  063%=      5-min Rain = 0
KST3 111419Z 22010KT 26/18 A3014 RMK A01 T02550177  RH  062%=      5-min Rain = 0
KST3 111420Z 23011KT 26/18 A3014 RMK A01 T02570176  RH  061%=      5-min Rain = 0
KST3 111421Z 22011KT 26/17 A3014 RMK A01 T02570174  RH  060%=      5-min Rain = 0
KST3 111422Z 22011KT 26/17 A3014 RMK A01 T02570174  RH  060%=      5-min Rain = 0
KST3 111423Z 21013KT 26/17 A3014 RMK A01 T02570173  RH  060%=      5-min Rain = 0
KST3 111424Z 22013KT 26/17 A3014 RMK A01 T02580170  RH  058%=      5-min Rain = 0
KST3 111425Z 22013KT 26/17 A3014 RMK A01 T02580170  RH  058%=      5-min Rain = 0
KST3 111426Z 22013KT 26/17 A3014 RMK A01 T02570170  RH  058%=      5-min Rain = 0
KST3 111427Z 22013KT 26/17 A3014 RMK A01 T02580171  RH  059%=      5-min Rain = 0
KST3 111428Z 21013KT 26/17 A3014 RMK A01 T02580171  RH  059%=      5-min Rain = 0
KST3 111429Z 21015KT 26/17 A3014 RMK A01 T02590170  RH  058%=      5-min Rain = 0
KST3 111430Z 22014KT 26/17 A3014 RMK A01 T02590168  RH  057%=      5-min Rain = 0
KST3 111431Z 22015KT 26/17 A3014 RMK A01 T02590168  RH  057%=      5-min Rain = 0
KST3 111432Z 22014KT 26/17 A3014 RMK A01 T02590167  RH  057%=      5-min Rain = 0
KST3 111433Z 22014KT 26/17 A3014 RMK A01 T02590167  RH  057%=      5-min Rain = 0
KST3 111434Z 23012KT 26/17 A3014 RMK A01 T02590168  RH  057%=      5-min Rain = 0
KST3 111435Z 22013KT 26/17 A3014 RMK A01 T02590170  RH  058%=      5-min Rain = 0
KST3 111436Z 21013KT 26/17 A3014 RMK A01 T02600169  RH  057%=      5-min Rain = 0
KST3 111437Z 21014KT 26/17 A3014 RMK A01 T02610168  RH  057%=      5-min Rain = 0
KST3 111438Z 21013KT 26/17 A3014 RMK A01 T02610169  RH  057%=      5-min Rain = 0
KST3 111439Z 22013KT 26/17 A3014 RMK A01 T02610169  RH  057%=      5-min Rain = 0
KST3 111440Z 21014KT 26/17 A3014 RMK A01 T02610170  RH  057%=      5-min Rain = 0
KST3 111441Z 22015KT 26/17 A3014 RMK A01 T02630165  RH  055%=      5-min Rain = 0
KST3 111442Z 21014KT 26/17 A3014 RMK A01 T02610165  RH  055%=      5-min Rain = 0
KST3 111443Z 22010KT 26/17 A3014 RMK A01 T02610168  RH  056%=      5-min Rain = 0
KST3 111444Z 21015KT 26/17 A3014 RMK A01 T02640168  RH  055%=      5-min Rain = 0
KST3 111445Z 22013KT 26/17 A3014 RMK A01 T02640167  RH  055%=      5-min Rain = 0
KST3 111446Z 22010KT 26/17 A3014 RMK A01 T02640169  RH  056%=      5-min Rain = 0
KST3 111447Z 22012G17KT 27/17 A3014 RMK A01 T02660171  RH  056%=      5-min Rain = 0
KST3 111448Z 22016KT 27/17 A3014 RMK A01 T02680165  RH  053%=      5-min Rain = 0
KST3 111449Z 22014KT 27/17 A3014 RMK A01 T02670165  RH  054%=      5-min Rain = 0
KST3 111450Z 21016KT 27/17 A3014 RMK A01 T02660165  RH  054%=      5-min Rain = 0
KST3 111451Z 21016KT 27/16 A3014 RMK A01 T02660162  RH  053%=      5-min Rain = 0
KST3 111452Z 21015KT 27/16 A3014 RMK A01 T02660162  RH  053%=      5-min Rain = 0
KST3 111453Z 21013KT 27/16 A3014 RMK A01 T02660162  RH  053%=      5-min Rain = 0
KST3 111454Z 21016KT 27/16 A3014 RMK A01 T02680163  RH  053%=      5-min Rain = 0
KST3 111455Z 22014KT 27/16 A3015 RMK A01 T02680163  RH  053%=      5-min Rain = 0
KST3 111456Z 22014KT 27/17 A3015 RMK A01 T02680165  RH  053%=      5-min Rain = 0
KST3 111457Z 21014KT 27/17 A3015 RMK A01 T02690165  RH  053%=      5-min Rain = 0
KST3 111458Z 21014KT 27/16 A3015 RMK A01 T02690164  RH  053%=      5-min Rain = 0
KST3 111459Z 21015KT 27/16 A3015 RMK A01 T02690162  RH  052%=      5-min Rain = 0
KST3 111500Z 20012KT 27/16 A3015 RMK A01 T02690163  RH  052%=      5-min Rain = 0
KST3 111501Z 20013KT 27/16 A3015 RMK A01 T02700162  RH  052%=      5-min Rain = 0
KST3 111502Z 20013KT 27/16 A3015 RMK A01 T02690163  RH  052%=      5-min Rain = 0
KST3 111503Z 20012KT 27/16 A3015 RMK A01 T02710163  RH  052%=      5-min Rain = 0
KST3 111504Z 21011KT 27/16 A3015 RMK A01 T02720164  RH  052%=      5-min Rain = 0
KST3 111505Z 21010KT 27/17 A3015 RMK A01 T02730165  RH  052%=      5-min Rain = 0
KST3 111506Z 21010KT 28/17 A3015 RMK A01 T02750169  RH  052%=      5-min Rain = 0
KST3 111507Z 22012KT 28/16 A3015 RMK A01 T02770164  RH  050%=      5-min Rain = 0
KST3 111508Z 21010KT 28/16 A3015 RMK A01 T02760163  RH  050%=      5-min Rain = 0
KST3 111509Z 22011KT 28/17 A3015 RMK A01 T02750165  RH  051%=      5-min Rain = 0
KST3 111510Z 22014KT 28/16 A3015 RMK A01 T02760164  RH  050%=      5-min Rain = 0
KST3 111511Z 22012KT 28/16 A3015 RMK A01 T02770163  RH  050%=      5-min Rain = 0
KST3 111512Z 21014KT 28/16 A3015 RMK A01 T02750162  RH  050%=      5-min Rain = 0
KST3 111513Z 22014KT 28/16 A3015 RMK A01 T02750162  RH  050%=      5-min Rain = 0
KST3 111514Z 22015KT 28/16 A3015 RMK A01 T02760162  RH  050%=      5-min Rain = 0
KST3 111515Z 21014KT 28/16 A3015 RMK A01 T02770160  RH  049%=      5-min Rain = 0
KST3 111516Z 21013KT 28/16 A3015 RMK A01 T02760159  RH  049%=      5-min Rain = 0
KST3 111517Z 21012KT 28/16 A3015 RMK A01 T02760162  RH  050%=      5-min Rain = 0
KST3 111518Z 22015KT 28/16 A3015 RMK A01 T02770159  RH  049%=      5-min Rain = 0
KST3 111519Z 22015KT 28/16 A3015 RMK A01 T02770159  RH  049%=      5-min Rain = 0
KST3 111520Z 21010KT 28/16 A3015 RMK A01 T02750159  RH  049%=      5-min Rain = 0
KST3 111521Z 23012KT 28/16 A3015 RMK A01 T02750162  RH  050%=      5-min Rain = 0
KST3 111522Z 23013KT 28/16 A3015 RMK A01 T02760162  RH  050%=      5-min Rain = 0
KST3 111523Z 22015KT 28/16 A3015 RMK A01 T02770162  RH  050%=      5-min Rain = 0
KST3 111524Z 21013KT 28/16 A3015 RMK A01 T02780162  RH  049%=      5-min Rain = 0
KST3 111525Z 22013KT 28/16 A3015 RMK A01 T02800160  RH  048%=      5-min Rain = 0
KST3 111526Z 22015KT 28/16 A3014 RMK A01 T02800161  RH  048%=      5-min Rain = 0
KST3 111527Z 21012KT 28/16 A3015 RMK A01 T02790163  RH  049%=      5-min Rain = 0
KST3 111528Z 22011KT 28/16 A3015 RMK A01 T02800163  RH  049%=      5-min Rain = 0
KST3 111529Z 22010KT 28/16 A3015 RMK A01 T02800162  RH  049%=      5-min Rain = 0
KST3 111530Z 23013KT 28/16 A3015 RMK A01 T02800164  RH  049%=      5-min Rain = 0
KST3 111531Z 23014KT 28/16 A3014 RMK A01 T02810162  RH  048%=      5-min Rain = 0
KST3 111532Z 22013KT 28/16 A3014 RMK A01 T02810162  RH  048%=      5-min Rain = 0
KST3 111533Z 21011KT 28/16 A3014 RMK A01 T02800164  RH  049%=      5-min Rain = 0
KST3 111534Z 22010KT 28/16 A3014 RMK A01 T02800163  RH  049%=      5-min Rain = 0
KST3 111535Z 21010KT 28/16 A3014 RMK A01 T02820164  RH  049%=      5-min Rain = 0
KST3 111536Z 20009KT 28/17 A3014 RMK A01 T02830165  RH  049%=      5-min Rain = 0
KST3 111537Z 22011KT 28/17 A3014 RMK A01 T02830167  RH  049%=      5-min Rain = 0
KST3 111538Z 22011KT 29/16 A3014 RMK A01 T02850164  RH  048%=      5-min Rain = 0
KST3 111539Z 23011KT 28/16 A3014 RMK A01 T02840163  RH  048%=      5-min Rain = 0
KST3 111540Z 22010KT 29/16 A3014 RMK A01 T02850163  RH  048%=      5-min Rain = 0
KST3 111541Z 21008KT 29/16 A3014 RMK A01 T02850164  RH  048%=      5-min Rain = 0
KST3 111542Z 23009KT 29/17 A3014 RMK A01 T02850165  RH  048%=      5-min Rain = 0
KST3 111543Z 22012KT 29/16 A3014 RMK A01 T02850163  RH  047%=      5-min Rain = 0
KST3 111544Z 22011KT 29/16 A3014 RMK A01 T02850163  RH  047%=      5-min Rain = 0
KST3 111545Z 22010KT 29/16 A3014 RMK A01 T02850164  RH  048%=      5-min Rain = 0
KST3 111546Z 23010KT 29/17 A3014 RMK A01 T02860165  RH  048%=      5-min Rain = 0
KST3 111547Z 23012KT 29/16 A3014 RMK A01 T02880163  RH  047%=      5-min Rain = 0
KST3 111548Z 22012KT 29/16 A3014 RMK A01 T02870162  RH  047%=      5-min Rain = 0
KST3 111549Z 22013KT 29/16 A3014 RMK A01 T02860162  RH  047%=      5-min Rain = 0
KST3 111550Z 23010KT 29/16 A3014 RMK A01 T02850162  RH  047%=      5-min Rain = 0
KST3 111551Z 23012KT 29/16 A3014 RMK A01 T02860162  RH  047%=      5-min Rain = 0
KST3 111552Z 23013KT 29/16 A3014 RMK A01 T02880163  RH  047%=      5-min Rain = 0
KST3 111553Z 22011KT 29/16 A3014 RMK A01 T02890164  RH  047%=      5-min Rain = 0
KST3 111554Z 22011KT 29/16 A3014 RMK A01 T02890164  RH  047%=      5-min Rain = 0
KST3 111555Z 22011KT 29/17 A3014 RMK A01 T02900167  RH  047%=      5-min Rain = 0
KST3 111556Z 22011KT 29/17 A3014 RMK A01 T02920165  RH  046%=      5-min Rain = 0
KST3 111557Z 23007KT 29/16 A3014 RMK A01 T02900162  RH  046%=      5-min Rain = 0
KST3 111558Z 24009KT 29/16 A3014 RMK A01 T02870164  RH  047%=      5-min Rain = 0
KST3 111559Z 23012KT 29/16 A3014 RMK A01 T02900163  RH  046%=      5-min Rain = 0
KST3 111600Z 21011KT 29/16 A3014 RMK A01 T02920162  RH  045%=      5-min Rain = 0
KST3 111601Z 21009KT 29/16 A3014 RMK A01 T02930164  RH  046%=      5-min Rain = 0
KST3 111602Z 21011KT 30/17 A3014 RMK A01 T02960165  RH  045%=      5-min Rain = 0
KST3 111603Z 21014KT 30/16 A3014 RMK A01 T02960164  RH  045%=      5-min Rain = 0
KST3 111604Z 21012KT 30/16 A3014 RMK A01 T02960162  RH  045%=      5-min Rain = 0
KST3 111605Z 22011KT 29/16 A3014 RMK A01 T02940163  RH  045%=      5-min Rain = 0
KST3 111606Z 23010KT 29/16 A3014 RMK A01 T02940162  RH  045%=      5-min Rain = 0
KST3 111607Z 22010KT 29/16 A3014 RMK A01 T02930162  RH  045%=      5-min Rain = 0
KST3 111608Z 22006KT 29/17 A3014 RMK A01 T02920165  RH  046%=      5-min Rain = 0
KST3 111609Z 22009KT 29/16 A3014 RMK A01 T02920163  RH  046%=      5-min Rain = 0
KST3 111610Z 22013KT 29/16 A3014 RMK A01 T02930163  RH  046%=      5-min Rain = 0
KST3 111611Z 21013KT 29/16 A3014 RMK A01 T02940160  RH  045%=      5-min Rain = 0
KST3 111612Z 22013KT 29/16 A3014 RMK A01 T02940158  RH  044%=      5-min Rain = 0
KST3 111613Z 21012KT 30/16 A3014 RMK A01 T02960160  RH  044%=      5-min Rain = 0
KST3 111614Z 22011KT 30/16 A3014 RMK A01 T02970159  RH  043%=      5-min Rain = 0
KST3 111615Z 23010KT 30/16 A3014 RMK A01 T02970160  RH  044%=      5-min Rain = 0
KST3 111616Z 23013KT 30/16 A3013 RMK A01 T02970161  RH  044%=      5-min Rain = 0
KST3 111617Z 23012KT 30/16 A3013 RMK A01 T02960162  RH  044%=      5-min Rain = 0
KST3 111618Z 22014KT 30/16 A3013 RMK A01 T02960160  RH  044%=      5-min Rain = 0
KST3 111619Z 22012KT 30/16 A3014 RMK A01 T02960161  RH  044%=      5-min Rain = 0
KST3 111620Z 23013KT 30/16 A3014 RMK A01 T02960161  RH  044%=      5-min Rain = 0
KST3 111621Z 22013KT 30/16 A3013 RMK A01 T02960160  RH  044%=      5-min Rain = 0
KST3 111622Z 22012KT 30/16 A3014 RMK A01 T02960161  RH  044%=      5-min Rain = 0
KST3 111623Z 22010KT 30/16 A3014 RMK A01 T02970161  RH  044%=      5-min Rain = 0
KST3 111624Z 23011KT 30/16 A3014 RMK A01 T02980163  RH  044%=      5-min Rain = 0
KST3 111625Z 23014KT 30/16 A3013 RMK A01 T02990161  RH  043%=      5-min Rain = 0
KST3 111626Z 21016KT 30/16 A3013 RMK A01 T03010163  RH  043%=      5-min Rain = 0
KST3 111627Z 21010KT 30/16 A3014 RMK A01 T03010160  RH  042%=      5-min Rain = 0
KST3 111628Z 23013KT 30/16 A3013 RMK A01 T03000162  RH  043%=      5-min Rain = 0
KST3 111629Z 24010KT 30/16 A3014 RMK A01 T03000160  RH  043%=      5-min Rain = 0
KST3 111630Z 22012G17KT 30/16 A3013 RMK A01 T02990162  RH  044%=      5-min Rain = 0
KST3 111631Z 20014KT 30/16 A3013 RMK A01 T03000160  RH  043%=      5-min Rain = 0
KST3 111632Z 21009KT 30/16 A3014 RMK A01 T03000160  RH  043%=      5-min Rain = 0
KST3 111633Z 23010KT 30/16 A3013 RMK A01 T03010163  RH  043%=      5-min Rain = 0
KST3 111634Z 22010KT 30/16 A3013 RMK A01 T03040163  RH  043%=      5-min Rain = 0
KST3 111635Z 20014KT 30/16 A3013 RMK A01 T03040160  RH  042%=      5-min Rain = 0
KST3 111636Z 21014KT 30/16 A3014 RMK A01 T03040156  RH  041%=      5-min Rain = 0
KST3 111637Z 21010KT 30/15 A3014 RMK A01 T03020153  RH  040%=      5-min Rain = 0
KST3 111638Z 21006KT 30/16 A3014 RMK A01 T03000155  RH  041%=      5-min Rain = 0
KST3 111639Z 20006G11KT 30/16 A3014 RMK A01 T03000160  RH  043%=      5-min Rain = 0
KST3 111640Z 20010KT 30/16 A3014 RMK A01 T03030160  RH  042%=      5-min Rain = 0
KST3 111641Z 21009KT 30/16 A3014 RMK A01 T03040158  RH  041%=      5-min Rain = 0
KST3 111642Z 19011KT 30/16 A3014 RMK A01 T03040159  RH  042%=      5-min Rain = 0
KST3 111643Z 19011KT 31/16 A3014 RMK A01 T03050158  RH  041%=      5-min Rain = 0
KST3 111644Z 20013KT 31/16 A3014 RMK A01 T03060158  RH  041%=      5-min Rain = 0
KST3 111645Z 20011KT 31/16 A3014 RMK A01 T03060158  RH  041%=      5-min Rain = 0
KST3 111646Z 22012KT 31/16 A3014 RMK A01 T03070158  RH  041%=      5-min Rain = 0
KST3 111647Z 23015KT 31/16 A3014 RMK A01 T03070155  RH  040%=      5-min Rain = 0
KST3 111648Z 22014KT 31/15 A3014 RMK A01 T03050154  RH  040%=      5-min Rain = 0
KST3 111649Z 21010KT 30/16 A3014 RMK A01 T03040155  RH  041%=      5-min Rain = 0
KST3 111650Z 22012KT 30/16 A3013 RMK A01 T03030156  RH  041%=      5-min Rain = 0
KST3 111651Z 22011G16KT 30/16 A3013 RMK A01 T03040157  RH  041%=      5-min Rain = 0
KST3 111652Z 22009KT 31/16 A3013 RMK A01 T03060157  RH  041%=      5-min Rain = 0
KST3 111653Z 21010G16KT 31/15 A3013 RMK A01 T03070154  RH  040%=      5-min Rain = 0
KST3 111654Z 21009KT 31/16 A3013 RMK A01 T03060156  RH  040%=      5-min Rain = 0
KST3 111655Z 20009KT 31/15 A3013 RMK A01 T03070154  RH  040%=      5-min Rain = 0
KST3 111656Z 20009KT 31/16 A3013 RMK A01 T03070156  RH  040%=      5-min Rain = 0
KST3 111657Z 21012G17KT 31/16 A3013 RMK A01 T03050155  RH  040%=      5-min Rain = 0
KST3 111658Z 22010KT 30/15 A3013 RMK A01 T03020152  RH  040%=      5-min Rain = 0
KST3 111659Z 22010KT 30/15 A3013 RMK A01 T02980151  RH  041%=      5-min Rain = 0
KST3 111700Z 21010KT 30/15 A3013 RMK A01 T02960153  RH  042%=      5-min Rain = 0
KST3 111701Z 20011KT 30/16 A3013 RMK A01 T02980155  RH  042%=      5-min Rain = 0
KST3 111702Z 20011KT 30/15 A3013 RMK A01 T03000153  RH  041%=      5-min Rain = 0
KST3 111703Z 20010KT 30/15 A3013 RMK A01 T02990153  RH  041%=      5-min Rain = 0
KST3 111704Z 21008KT 30/15 A3013 RMK A01 T02980151  RH  041%=      5-min Rain = 0
KST3 111705Z 20010KT 30/15 A3013 RMK A01 T02970153  RH  042%=      5-min Rain = 0
KST3 111706Z 21010KT 30/16 A3013 RMK A01 T02970155  RH  042%=      5-min Rain = 0
KST3 111707Z 19008KT 30/15 A3014 RMK A01 T02980153  RH  042%=      5-min Rain = 0
KST3 111708Z 18007KT 30/15 A3013 RMK A01 T02980153  RH  041%=      5-min Rain = 0
KST3 111709Z 17009KT 30/15 A3013 RMK A01 T02980153  RH  042%=      5-min Rain = 0
KST3 111710Z 17009KT 30/15 A3013 RMK A01 T03000154  RH  041%=      5-min Rain = 0
KST3 111711Z 17010KT 30/16 A3013 RMK A01 T03020155  RH  041%=      5-min Rain = 0
KST3 111712Z 19011KT 30/16 A3013 RMK A01 T03040157  RH  041%=      5-min Rain = 0
KST3 111713Z 20014KT 31/15 A3013 RMK A01 T03070154  RH  040%=      5-min Rain = 0
KST3 111714Z 20014KT 31/15 A3013 RMK A01 T03070153  RH  039%=      5-min Rain = 0
KST3 111715Z 20015KT 31/15 A3013 RMK A01 T03060153  RH  040%=      5-min Rain = 0
KST3 111716Z 20012KT 31/15 A3014 RMK A01 T03050151  RH  039%=      5-min Rain = 0
KST3 111717Z 20009KT 30/15 A3014 RMK A01 T03030154  RH  041%=      5-min Rain = 0
KST3 111718Z 19011KT 30/15 A3014 RMK A01 T03040152  RH  040%=      5-min Rain = 0
KST3 111719Z 18010KT 30/15 A3013 RMK A01 T03020149  RH  039%=      5-min Rain = 0
KST3 111720Z 17008KT 30/15 A3013 RMK A01 T02990148  RH  040%=      5-min Rain = 0
KST3 111721Z 17008KT 30/15 A3013 RMK A01 T02980151  RH  041%=      5-min Rain = 0
KST3 111722Z 20012KT 30/15 A3013 RMK A01 T02980150  RH  041%=      5-min Rain = 0
KST3 111723Z 21014KT 30/15 A3013 RMK A01 T02970150  RH  041%=      5-min Rain = 0
KST3 111724Z 21009KT 30/15 A3013 RMK A01 T02960150  RH  041%=      5-min Rain = 0
KST3 111725Z 20007KT 30/15 A3013 RMK A01 T02970149  RH  041%=      5-min Rain = 0
KST3 111726Z 20007KT 30/15 A3013 RMK A01 T02960153  RH  042%=      5-min Rain = 0
KST3 111727Z 20011KT 30/15 A3013 RMK A01 T02980152  RH  041%=      5-min Rain = 0
KST3 111728Z 21016KT 30/15 A3013 RMK A01 T03010154  RH  041%=      5-min Rain = 0
KST3 111729Z 17014G19KT 31/16 A3013 RMK A01 T03070155  RH  040%=      5-min Rain = 0
KST3 111730Z 16015KT 31/15 A3013 RMK A01 T03100154  RH  039%=      5-min Rain = 0
KST3 111731Z 17013KT 31/16 A3012 RMK A01 T03120155  RH  039%=      5-min Rain = 0
KST3 111732Z 18011KT 31/16 A3013 RMK A01 T03140155  RH  038%=      5-min Rain = 0
KST3 111733Z 18009KT 32/16 A3013 RMK A01 T03160160  RH  039%=      5-min Rain = 0
KST3 111734Z 19013KT 32/16 A3013 RMK A01 T03190157  RH  037%=      5-min Rain = 0
KST3 111735Z 20013KT 32/15 A3013 RMK A01 T03160154  RH  038%=      5-min Rain = 0
KST3 111736Z 19012KT 31/15 A3013 RMK A01 T03120152  RH  038%=      5-min Rain = 0
KST3 111737Z 19011KT 31/15 A3012 RMK A01 T03130154  RH  038%=      5-min Rain = 0
KST3 111738Z 18011G16KT 31/16 A3012 RMK A01 T03140155  RH  038%=      5-min Rain = 0
KST3 111739Z 19015KT 32/16 A3012 RMK A01 T03190160  RH  038%=      5-min Rain = 0
KST3 111740Z 20012KT 32/16 A3012 RMK A01 T03200155  RH  037%=      5-min Rain = 0
KST3 111741Z 18012KT 32/15 A3012 RMK A01 T03160154  RH  038%=      5-min Rain = 0
KST3 111742Z 18016G22KT 32/16 A3012 RMK A01 T03160156  RH  038%=      5-min Rain = 0
KST3 111743Z 18013KT 32/16 A3012 RMK A01 T03180156  RH  038%=      5-min Rain = 0
KST3 111744Z 18016KT 32/15 A3012 RMK A01 T03180153  RH  037%=      5-min Rain = 0
KST3 111745Z 18015G20KT 32/15 A3012 RMK A01 T03160153  RH  037%=      5-min Rain = 0
KST3 111746Z 18013KT 32/16 A3012 RMK A01 T03150155  RH  038%=      5-min Rain = 0
KST3 111747Z 17013KT 32/16 A3012 RMK A01 T03160155  RH  038%=      5-min Rain = 0
KST3 111748Z 15012KT 32/15 A3012 RMK A01 T03150153  RH  038%=      5-min Rain = 0
KST3 111749Z 16013KT 31/16 A3012 RMK A01 T03130155  RH  038%=      5-min Rain = 0
KST3 111750Z 16015KT 31/16 A3012 RMK A01 T03140156  RH  039%=      5-min Rain = 0
KST3 111751Z 16014KT 32/16 A3012 RMK A01 T03150155  RH  038%=      5-min Rain = 0
KST3 111752Z 18014KT 32/16 A3012 RMK A01 T03150159  RH  039%=      5-min Rain = 0
KST3 111753Z 21011KT 32/16 A3012 RMK A01 T03170159  RH  038%=      5-min Rain = 0
KST3 111754Z 21009G14KT 32/16 A3012 RMK A01 T03210161  RH  038%=      5-min Rain = 0
KST3 111755Z 20013KT 32/16 A3012 RMK A01 T03230158  RH  037%=      5-min Rain = 0
KST3 111756Z 21013KT 32/16 A3012 RMK A01 T03200157  RH  038%=      5-min Rain = 0
KST3 111757Z 20011KT 32/16 A3012 RMK A01 T03170159  RH  039%=      5-min Rain = 0
KST3 111758Z 19013G18KT 32/16 A3012 RMK A01 T03150157  RH  038%=      5-min Rain = 0
KST3 111759Z 21013G18KT 32/16 A3012 RMK A01 T03150157  RH  039%=      5-min Rain = 0
KST3 111800Z 22011KT 32/15 A3012 RMK A01 T03170153  RH  037%=      5-min Rain = 0
KST3 111801Z 19012KT 32/16 A3012 RMK A01 T03190156  RH  038%=      5-min Rain = 0
KST3 111802Z 17012KT 32/16 A3011 RMK A01 T03230158  RH  037%=      5-min Rain = 0
KST3 111803Z 18016G21KT 33/16 A3012 RMK A01 T03260158  RH  037%=      5-min Rain = 0
KST3 111804Z 19016KT 33/15 A3012 RMK A01 T03260154  RH  036%=      5-min Rain = 0
KST3 111805Z 19011KT 32/15 A3012 RMK A01 T03230153  RH  036%=      5-min Rain = 0
KST3 111806Z 20013KT 32/16 A3012 RMK A01 T03210157  RH  037%=      5-min Rain = 0
KST3 111807Z 20010KT 32/15 A3012 RMK A01 T03200154  RH  037%=      5-min Rain = 0
KST3 111808Z 19011G18KT 32/16 A3012 RMK A01 T03210160  RH  038%=      5-min Rain = 0
KST3 111809Z 18015KT 32/16 A3012 RMK A01 T03240155  RH  036%=      5-min Rain = 0
KST3 111810Z 18012KT 32/15 A3011 RMK A01 T03230152  RH  036%=      5-min Rain = 0
KST3 111811Z 18016G22KT 32/16 A3011 RMK A01 T03230156  RH  037%=      5-min Rain = 0
KST3 111812Z 18016KT 33/15 A3011 RMK A01 T03250154  RH  036%=      5-min Rain = 0
KST3 111813Z 17017KT 32/15 A3011 RMK A01 T03240154  RH  036%=      5-min Rain = 0
KST3 111814Z 19013KT 33/16 A3012 RMK A01 T03250157  RH  036%=      5-min Rain = 0
KST3 111815Z 20015KT 33/15 A3012 RMK A01 T03260153  RH  035%=      5-min Rain = 0
KST3 111816Z 20010KT 32/15 A3012 RMK A01 T03220151  RH  036%=      5-min Rain = 0
KST3 111817Z 20008KT 32/16 A3012 RMK A01 T03210157  RH  037%=      5-min Rain = 0
KST3 111818Z 19011KT 32/16 A3012 RMK A01 T03230155  RH  036%=      5-min Rain = 0
KST3 111819Z 19011KT 32/15 A3011 RMK A01 T03230153  RH  036%=      5-min Rain = 0
KST3 111820Z 17010KT 32/15 A3011 RMK A01 T03230154  RH  036%=      5-min Rain = 0
KST3 111821Z 20012KT 32/15 A3011 RMK A01 T03220154  RH  036%=      5-min Rain = 0
KST3 111822Z 21015KT 32/16 A3011 RMK A01 T03230155  RH  036%=      5-min Rain = 0
KST3 111823Z 20013KT 33/16 A3011 RMK A01 T03260156  RH  036%=      5-min Rain = 0
KST3 111824Z 19011KT 33/16 A3011 RMK A01 T03280157  RH  036%=      5-min Rain = 0
KST3 111825Z 18009KT 33/16 A3011 RMK A01 T03280158  RH  036%=      5-min Rain = 0
KST3 111826Z 18011KT 33/15 A3011 RMK A01 T03290154  RH  035%=      5-min Rain = 0
KST3 111827Z 15013KT 33/15 A3011 RMK A01 T03270153  RH  035%=      5-min Rain = 0
KST3 111828Z 16012KT 32/15 A3011 RMK A01 T03230151  RH  036%=      5-min Rain = 0
KST3 111829Z 17013KT 32/15 A3011 RMK A01 T03200148  RH  035%=      5-min Rain = 0
KST3 111830Z 17010KT 32/15 A3011 RMK A01 T03170148  RH  036%=      5-min Rain = 0
KST3 111831Z 18014KT 32/15 A3011 RMK A01 T03190152  RH  037%=      5-min Rain = 0
KST3 111832Z 19015KT 32/15 A3011 RMK A01 T03230152  RH  036%=      5-min Rain = 0
KST3 111833Z 20012KT 33/15 A3011 RMK A01 T03250149  RH  035%=      5-min Rain = 0
KST3 111834Z 21013KT 32/15 A3011 RMK A01 T03230147  RH  034%=      5-min Rain = 0
KST3 111835Z 20011KT 32/15 A3011 RMK A01 T03230147  RH  035%=      5-min Rain = 0
KST3 111836Z 21012KT 33/15 A3011 RMK A01 T03260154  RH  036%=      5-min Rain = 0
KST3 111837Z 21013KT 33/16 A3011 RMK A01 T03310155  RH  035%=      5-min Rain = 0
KST3 111838Z 20016KT 33/15 A3011 RMK A01 T03330150  RH  033%=      5-min Rain = 0
KST3 111839Z 20012KT 33/15 A3011 RMK A01 T03310148  RH  033%=      5-min Rain = 0
KST3 111840Z 20014KT 33/15 A3011 RMK A01 T03280147  RH  034%=      5-min Rain = 0
KST3 111841Z 22011KT 33/15 A3011 RMK A01 T03260147  RH  034%=      5-min Rain = 0
KST3 111842Z 21011KT 33/15 A3011 RMK A01 T03270151  RH  035%=      5-min Rain = 0
KST3 111843Z 20011KT 33/16 A3011 RMK A01 T03300156  RH  035%=      5-min Rain = 0
KST3 111844Z 19010KT 33/15 A3011 RMK A01 T03330152  RH  034%=      5-min Rain = 0
KST3 111845Z 19011KT 33/15 A3011 RMK A01 T03340154  RH  034%=      5-min Rain = 0
KST3 111846Z 18012KT 34/15 A3011 RMK A01 T03360148  RH  032%=      5-min Rain = 0
KST3 111847Z 19011KT 33/14 A301 RMK A01 T03290140  RH  032%=      5-min Rain = 0
KST3 111848Z 18009KT 32/15 A3011 RMK A01 T03230145  RH  034%=      5-min Rain = 0
KST3 111849Z 17012KT 32/14 A301 RMK A01 T03230144  RH  034%=      5-min Rain = 0
KST3 111850Z 17011KT 32/14 A301 RMK A01 T03230139  RH  033%=      5-min Rain = 0
KST3 111851Z 17013KT 32/14 A301 RMK A01 T03240142  RH  033%=      5-min Rain = 0
KST3 111852Z 18013KT 33/14 A301 RMK A01 T03270141  RH  033%=      5-min Rain = 0
KST3 111853Z 19016KT 33/14 A301 RMK A01 T03300139  RH  032%=      5-min Rain = 0
KST3 111854Z 19015KT 33/14 A301 RMK A01 T03300137  RH  031%=      5-min Rain = 0
KST3 111855Z 19015G20KT 33/14 A301 RMK A01 T03310141  RH  032%=      5-min Rain = 0
KST3 111856Z 19015KT 33/14 A301 RMK A01 T03330137  RH  031%=      5-min Rain = 0
KST3 111857Z 18010KT 33/14 A301 RMK A01 T03290139  RH  032%=      5-min Rain = 0
KST3 111858Z 18014G19KT 33/14 A301 RMK A01 T03280140  RH  032%=      5-min Rain = 0
KST3 111859Z 16014KT 33/14 A301 RMK A01 T03290139  RH  032%=      5-min Rain = 0
KST3 111900Z 19014KT 33/14 A301 RMK A01 T03300142  RH  032%=      5-min Rain = 0
KST3 111901Z 19017KT 33/14 A301 RMK A01 T03320139  RH  031%=      5-min Rain = 0
KST3 111902Z 19017KT 33/14 A301 RMK A01 T03310139  RH  031%=      5-min Rain = 0
KST3 111903Z 19016KT 33/14 A301 RMK A01 T03290138  RH  031%=      5-min Rain = 0
KST3 111904Z 18013KT 33/14 A301 RMK A01 T03280139  RH  032%=      5-min Rain = 0
KST3 111905Z 20014KT 33/14 A301 RMK A01 T03300140  RH  032%=      5-min Rain = 0
KST3 111906Z 19015KT 33/14 A3009 RMK A01 T03310140  RH  032%=      5-min Rain = 0
KST3 111907Z 18018G23KT 33/14 A3009 RMK A01 T03310141  RH  032%=      5-min Rain = 0
KST3 111908Z 18019G24KT 33/14 A3009 RMK A01 T03330143  RH  032%=      5-min Rain = 0
KST3 111909Z 18016KT 33/14 A3009 RMK A01 T03330141  RH  031%=      5-min Rain = 0
KST3 111910Z 18013KT 33/14 A301 RMK A01 T03330144  RH  032%=      5-min Rain = 0
KST3 111911Z 18014KT 33/14 A3009 RMK A01 T03330141  RH  031%=      5-min Rain = 0
KST3 111912Z 16012KT 33/14 A3009 RMK A01 T03320144  RH  032%=      5-min Rain = 0
KST3 111913Z 19013KT 33/14 A3009 RMK A01 T03330144  RH  032%=      5-min Rain = 0
KST3 111914Z 18013KT 33/14 A3009 RMK A01 T03330144  RH  032%=      5-min Rain = 0
KST3 111915Z 17014KT 34/14 A3009 RMK A01 T03350143  RH  031%=      5-min Rain = 0
KST3 111916Z 17015KT 34/14 A3009 RMK A01 T03350143  RH  031%=      5-min Rain = 0
KST3 111917Z 19015G21KT 33/14 A3009 RMK A01 T03340143  RH  031%=      5-min Rain = 0
KST3 111918Z 18012KT 33/14 A3009 RMK A01 T03330142  RH  032%=      5-min Rain = 0
KST3 111919Z 19011KT 33/14 A3009 RMK A01 T03320142  RH  032%=      5-min Rain = 0
KST3 111920Z 19012KT 33/14 A3009 RMK A01 T03320143  RH  032%=      5-min Rain = 0
KST3 111921Z 20012KT 33/14 A3009 RMK A01 T03320141  RH  032%=      5-min Rain = 0
KST3 111922Z 18012KT 33/14 A3009 RMK A01 T03310143  RH  032%=      5-min Rain = 0
KST3 111923Z 19013KT 33/14 A3009 RMK A01 T03320144  RH  032%=      5-min Rain = 0
KST3 111924Z 18014KT 33/14 A3009 RMK A01 T03330143  RH  032%=      5-min Rain = 0
KST3 111925Z 19012G19KT 34/15 A3008 RMK A01 T03370145  RH  032%=      5-min Rain = 0
KST3 111926Z 18015KT 34/14 A3009 RMK A01 T03370144  RH  031%=      5-min Rain = 0
KST3 111927Z 18014KT 34/14 A3009 RMK A01 T03370142  RH  031%=      5-min Rain = 0
KST3 111928Z 16015G20KT 34/14 A3008 RMK A01 T03350142  RH  031%=      5-min Rain = 0
KST3 111929Z 17015G20KT 33/14 A3008 RMK A01 T03320141  RH  032%=      5-min Rain = 0
KST3 111930Z 19017KT 33/14 A3008 RMK A01 T03310143  RH  032%=      5-min Rain = 0
KST3 111931Z 19016KT 33/14 A3008 RMK A01 T03310142  RH  032%=      5-min Rain = 0
KST3 111932Z 18017G22KT 33/14 A3008 RMK A01 T03320144  RH  032%=      5-min Rain = 0
KST3 111933Z 19016KT 33/14 A3009 RMK A01 T03340142  RH  031%=      5-min Rain = 0
KST3 111934Z 18017KT 33/14 A3009 RMK A01 T03340142  RH  031%=      5-min Rain = 0
KST3 111935Z 17015KT 33/14 A3008 RMK A01 T03340139  RH  031%=      5-min Rain = 0
KST3 111936Z 17011KT 33/14 A3008 RMK A01 T03330142  RH  032%=      5-min Rain = 0
KST3 111937Z 18012KT 34/15 A3008 RMK A01 T03360146  RH  032%=      5-min Rain = 0
KST3 111938Z 17010KT 34/14 A3008 RMK A01 T03370141  RH  031%=      5-min Rain = 0
KST3 111939Z 16015G20KT 33/14 A3008 RMK A01 T03340143  RH  032%=      5-min Rain = 0
KST3 111940Z 15016KT 34/14 A3008 RMK A01 T03350141  RH  031%=      5-min Rain = 0
KST3 111941Z 16011KT 34/14 A3008 RMK A01 T03350142  RH  031%=      5-min Rain = 0
KST3 111942Z 17010KT 34/15 A3008 RMK A01 T03370146  RH  032%=      5-min Rain = 0
KST3 111943Z 17013G21KT 34/15 A3008 RMK A01 T03400149  RH  032%=      5-min Rain = 0
KST3 111944Z 17015G21KT 34/15 A3008 RMK A01 T03430145  RH  031%=      5-min Rain = 0
KST3 111945Z 18017KT 34/14 A3008 RMK A01 T03430144  RH  030%=      5-min Rain = 0
KST3 111946Z 18016G21KT 34/14 A3008 RMK A01 T03380139  RH  030%=      5-min Rain = 0
KST3 111947Z 18012KT 34/14 A3008 RMK A01 T03350138  RH  030%=      5-min Rain = 0
KST3 111948Z 18017G22KT 33/14 A3008 RMK A01 T03340141  RH  031%=      5-min Rain = 0
KST3 111949Z 18017G22KT 34/14 A3008 RMK A01 T03360137  RH  030%=      5-min Rain = 0
KST3 111950Z 19017KT 34/14 A3008 RMK A01 T03360137  RH  030%=      5-min Rain = 0
KST3 111951Z 20013KT 34/14 A3008 RMK A01 T03350137  RH  030%=      5-min Rain = 0
KST3 111952Z 19011KT 34/14 A3007 RMK A01 T03350142  RH  031%=      5-min Rain = 0
KST3 111953Z 18014G19KT 34/14 A3007 RMK A01 T03380143  RH  031%=      5-min Rain = 0
KST3 111954Z 18013KT 34/14 A3007 RMK A01 T03390136  RH  029%=      5-min Rain = 0
KST3 111955Z 19014KT 34/14 A3007 RMK A01 T03370139  RH  030%=      5-min Rain = 0
KST3 111956Z 19015G20KT 34/14 A3007 RMK A01 T03390138  RH  030%=      5-min Rain = 0
KST3 111957Z 19013KT 34/13 A3007 RMK A01 T03380134  RH  029%=      5-min Rain = 0
KST3 111958Z 17019KT 34/14 A3007 RMK A01 T03370135  RH  030%=      5-min Rain = 0
KST3 111959Z 18013KT 33/13 A3007 RMK A01 T03340133  RH  030%=      5-min Rain = 0
KST3 112000Z 17016KT 33/13 A3007 RMK A01 T03330134  RH  030%=      5-min Rain = 0
KST3 112001Z 18017KT 33/13 A3007 RMK A01 T03340132  RH  029%=      5-min Rain = 0
KST3 112002Z 18016G21KT 34/13 A3007 RMK A01 T03360132  RH  029%=      5-min Rain = 0
KST3 112003Z 17016KT 34/13 A3007 RMK A01 T03380133  RH  029%=      5-min Rain = 0
KST3 112004Z 18016KT 34/13 A3007 RMK A01 T03390133  RH  029%=      5-min Rain = 0
KST3 112005Z 18017KT 34/13 A3007 RMK A01 T03380131  RH  029%=      5-min Rain = 0
KST3 112006Z 18017KT 34/13 A3007 RMK A01 T03350128  RH  028%=      5-min Rain = 0
KST3 112007Z 18017KT 33/13 A3007 RMK A01 T03310128  RH  029%=      5-min Rain = 0
KST3 112008Z 18014KT 33/13 A3007 RMK A01 T03280127  RH  030%=      5-min Rain = 0
KST3 112009Z 18013KT 33/13 A3007 RMK A01 T03270127  RH  030%=      5-min Rain = 0
KST3 112010Z 17011KT 33/13 A3007 RMK A01 T03300132  RH  030%=      5-min Rain = 0
KST3 112011Z 17011KT 34/14 A3007 RMK A01 T03350136  RH  030%=      5-min Rain = 0
KST3 112012Z 17011KT 34/13 A3007 RMK A01 T03390134  RH  029%=      5-min Rain = 0
KST3 112013Z 18013KT 34/14 A3006 RMK A01 T03390135  RH  029%=      5-min Rain = 0
KST3 112014Z 17013KT 34/13 A3006 RMK A01 T03400133  RH  029%=      5-min Rain = 0
KST3 112015Z 17014KT 34/14 A3006 RMK A01 T03400135  RH  029%=      5-min Rain = 0
KST3 112016Z 19015KT 34/13 A3006 RMK A01 T03410133  RH  029%=      5-min Rain = 0
KST3 112017Z 19016KT 34/13 A3006 RMK A01 T03410130  RH  028%=      5-min Rain = 0
KST3 112018Z 19015KT 34/13 A3006 RMK A01 T03380128  RH  028%=      5-min Rain = 0
KST3 112019Z 20014KT 34/13 A3006 RMK A01 T03350129  RH  029%=      5-min Rain = 0
KST3 112020Z 19015KT 34/13 A3006 RMK A01 T03380133  RH  029%=      5-min Rain = 0
KST3 112021Z 17017KT 34/13 A3006 RMK A01 T03420132  RH  028%=      5-min Rain = 0
KST3 112022Z 16015KT 34/13 A3006 RMK A01 T03420128  RH  027%=      5-min Rain = 0
KST3 112023Z 17017KT 34/13 A3006 RMK A01 T03420129  RH  028%=      5-min Rain = 0
KST3 112024Z 17016G21KT 34/12 A3006 RMK A01 T03420124  RH  027%=      5-min Rain = 0
KST3 112025Z 18017KT 34/13 A3006 RMK A01 T03410126  RH  027%=      5-min Rain = 0
KST3 112026Z 19013KT 34/13 A3006 RMK A01 T03410125  RH  027%=      5-min Rain = 0
KST3 112027Z 19012KT 34/13 A3006 RMK A01 T03420125  RH  027%=      5-min Rain = 0
KST3 112028Z 20012KT 34/13 A3006 RMK A01 T03400125  RH  027%=      5-min Rain = 0
KST3 112029Z 17014KT 34/13 A3006 RMK A01 T03410127  RH  027%=      5-min Rain = 0
KST3 112030Z 16017KT 34/12 A3006 RMK A01 T03420124  RH  027%=      5-min Rain = 0
KST3 112031Z 18015KT 34/12 A3006 RMK A01 T03430124  RH  027%=      5-min Rain = 0
KST3 112032Z 18012KT 34/13 A3006 RMK A01 T03430125  RH  027%=      5-min Rain = 0
KST3 112033Z 17015KT 35/13 A3006 RMK A01 T03460129  RH  027%=      5-min Rain = 0
KST3 112034Z 17016KT 35/13 A3006 RMK A01 T03470128  RH  027%=      5-min Rain = 0
KST3 112035Z 17012G17KT 35/13 A3006 RMK A01 T03460126  RH  026%=      5-min Rain = 0
KST3 112036Z 17009KT 34/13 A3006 RMK A01 T03440129  RH  027%=      5-min Rain = 0
KST3 112037Z 17011G17KT 34/13 A3006 RMK A01 T03440130  RH  028%=      5-min Rain = 0
KST3 112038Z 17014KT 35/13 A3006 RMK A01 T03470132  RH  027%=      5-min Rain = 0
KST3 112039Z 17014KT 35/13 A3006 RMK A01 T03490133  RH  027%=      5-min Rain = 0
KST3 112040Z 18015KT 35/13 A3006 RMK A01 T03500130  RH  027%=      5-min Rain = 0
KST3 112041Z 19015KT 35/13 A3006 RMK A01 T03500127  RH  026%=      5-min Rain = 0
KST3 112042Z 19014KT 35/13 A3006 RMK A01 T03480125  RH  026%=      5-min Rain = 0
KST3 112043Z 18013KT 35/13 A3006 RMK A01 T03480128  RH  027%=      5-min Rain = 0
KST3 112044Z 18015KT 35/13 A3005 RMK A01 T03480126  RH  026%=      5-min Rain = 0
KST3 112045Z 19017KT 34/12 A3005 RMK A01 T03440121  RH  026%=      5-min Rain = 0
KST3 112046Z 18014KT 34/12 A3005 RMK A01 T03400121  RH  026%=      5-min Rain = 0
KST3 112047Z 17015KT 34/12 A3005 RMK A01 T03410123  RH  027%=      5-min Rain = 0
KST3 112048Z 17019KT 34/12 A3005 RMK A01 T03430124  RH  027%=      5-min Rain = 0
KST3 112049Z 17015KT 34/12 A3005 RMK A01 T03430119  RH  026%=      5-min Rain = 0
KST3 112050Z 16013G19KT 34/13 A3005 RMK A01 T03420126  RH  027%=      5-min Rain = 0
KST3 112051Z 17017G22KT 35/13 A3005 RMK A01 T03460128  RH  027%=      5-min Rain = 0
KST3 112052Z 18020KT 35/13 A3005 RMK A01 T03480126  RH  026%=      5-min Rain = 0
KST3 112053Z 18017KT 35/12 A3005 RMK A01 T03480122  RH  026%=      5-min Rain = 0
KST3 112054Z 19018G24KT 35/12 A3005 RMK A01 T03470123  RH  026%=      5-min Rain = 0
KST3 112055Z 19015G23KT 34/12 A3005 RMK A01 T03440123  RH  026%=      5-min Rain = 0
KST3 112056Z 18014KT 34/13 A3005 RMK A01 T03440127  RH  027%=      5-min Rain = 0
KST3 112057Z 17019G24KT 35/13 A3005 RMK A01 T03450126  RH  027%=      5-min Rain = 0
KST3 112058Z 17019KT 34/12 A3005 RMK A01 T03440122  RH  026%=      5-min Rain = 0
KST3 112059Z 16017KT 34/12 A3005 RMK A01 T03410124  RH  027%=      5-min Rain = 0
KST3 112100Z 16020G25KT 34/12 A3005 RMK A01 T03410121  RH  026%=      5-min Rain = 0
KST3 112101Z 15019KT 34/12 A3005 RMK A01 T03380119  RH  027%=      5-min Rain = 0
KST3 112102Z 16017G23KT 34/12 A3005 RMK A01 T03370122  RH  027%=      5-min Rain = 0
KST3 112103Z 14016KT 34/12 A3005 RMK A01 T03380121  RH  027%=      5-min Rain = 0
KST3 112104Z 14012G17KT 34/13 A3005 RMK A01 T03380125  RH  028%=      5-min Rain = 0
KST3 112105Z 17018G23KT 34/12 A3005 RMK A01 T03400124  RH  027%=      5-min Rain = 0
KST3 112106Z 17016G21KT 34/12 A3005 RMK A01 T03370119  RH  027%=      5-min Rain = 0
KST3 112107Z 17014KT 33/12 A3005 RMK A01 T03340120  RH  027%=      5-min Rain = 0
KST3 112108Z 17014KT 34/12 A3005 RMK A01 T03360122  RH  027%=      5-min Rain = 0
KST3 112109Z 16014KT 34/13 A3005 RMK A01 T03410127  RH  027%=      5-min Rain = 0
KST3 112110Z 16016KT 34/12 A3005 RMK A01 T03430123  RH  027%=      5-min Rain = 0
KST3 112111Z 16018G23KT 34/12 A3005 RMK A01 T03370120  RH  027%=      5-min Rain = 0
KST3 112112Z 16022KT 33/12 A3004 RMK A01 T03320118  RH  027%=      5-min Rain = 0
KST3 112113Z 17019KT 33/12 A3004 RMK A01 T03320118  RH  027%=      5-min Rain = 0
KST3 112114Z 16015G20KT 33/12 A3004 RMK A01 T03330120  RH  027%=      5-min Rain = 0
KST3 112115Z 15015G21KT 33/12 A3005 RMK A01 T03330123  RH  028%=      5-min Rain = 0
KST3 112116Z 15015G21KT 33/12 A3004 RMK A01 T03330121  RH  028%=      5-min Rain = 0
KST3 112117Z 16018G23KT 33/12 A3004 RMK A01 T03320120  RH  027%=      5-min Rain = 0
KST3 112118Z 15013G18KT 33/12 A3004 RMK A01 T03330120  RH  027%=      5-min Rain = 0
KST3 112119Z 16015KT 34/12 A3004 RMK A01 T03360124  RH  028%=      5-min Rain = 0
KST3 112120Z 15018KT 34/12 A3004 RMK A01 T03400124  RH  027%=      5-min Rain = 0
KST3 112121Z 16019KT 34/12 A3004 RMK A01 T03400122  RH  027%=      5-min Rain = 0
KST3 112122Z 16018KT 34/12 A3004 RMK A01 T03390119  RH  026%=      5-min Rain = 0
KST3 112123Z 16015G20KT 34/12 A3004 RMK A01 T03380121  RH  027%=      5-min Rain = 0
KST3 112124Z 16014KT 34/12 A3004 RMK A01 T03380122  RH  027%=      5-min Rain = 0
KST3 112125Z 18014KT 34/12 A3004 RMK A01 T03400124  RH  027%=      5-min Rain = 0
KST3 112126Z 17017G22KT 34/12 A3004 RMK A01 T03420123  RH  027%=      5-min Rain = 0
KST3 112127Z 17017KT 34/12 A3004 RMK A01 T03410118  RH  026%=      5-min Rain = 0
KST3 112128Z 17013KT 34/12 A3004 RMK A01 T03410121  RH  026%=      5-min Rain = 0
KST3 112129Z 16012KT 34/13 A3004 RMK A01 T03430125  RH  027%=      5-min Rain = 0
KST3 112130Z 15015G20KT 35/12 A3004 RMK A01 T03450123  RH  026%=      5-min Rain = 0
KST3 112131Z 15013KT 34/12 A3004 RMK A01 T03440121  RH  026%=      5-min Rain = 0
KST3 112132Z 16017KT 34/12 A3004 RMK A01 T03430120  RH  026%=      5-min Rain = 0
KST3 112133Z 16018KT 34/12 A3004 RMK A01 T03420120  RH  026%=      5-min Rain = 0
KST3 112134Z 16018KT 34/12 A3004 RMK A01 T03430120  RH  026%=      5-min Rain = 0
KST3 112135Z 16017G23KT 34/12 A3004 RMK A01 T03420120  RH  026%=      5-min Rain = 0
KST3 112136Z 17017G22KT 34/12 A3004 RMK A01 T03420122  RH  026%=      5-min Rain = 0
KST3 112137Z 17017G23KT 34/12 A3004 RMK A01 T03420119  RH  026%=      5-min Rain = 0
KST3 112138Z 15015KT 34/12 A3004 RMK A01 T03410121  RH  026%=      5-min Rain = 0
KST3 112139Z 15014G19KT 34/12 A3004 RMK A01 T03410124  RH  027%=      5-min Rain = 0
KST3 112140Z 16016KT 34/12 A3003 RMK A01 T03420123  RH  027%=      5-min Rain = 0
KST3 112141Z 16016G22KT 34/12 A3003 RMK A01 T03420123  RH  027%=      5-min Rain = 0
KST3 112142Z 15016KT 34/12 A3003 RMK A01 T03420121  RH  026%=      5-min Rain = 0
KST3 112143Z 16016KT 34/12 A3003 RMK A01 T03410121  RH  026%=      5-min Rain = 0
KST3 112144Z 16015G21KT 34/12 A3003 RMK A01 T03410122  RH  027%=      5-min Rain = 0
KST3 112145Z 16017KT 34/12 A3003 RMK A01 T03410122  RH  026%=      5-min Rain = 0
KST3 112146Z 16021G26KT 34/12 A3003 RMK A01 T03420121  RH  026%=      5-min Rain = 0
KST3 112147Z 16018G23KT 34/12 A3003 RMK A01 T03410118  RH  026%=      5-min Rain = 0
KST3 112148Z 16017KT 34/12 A3003 RMK A01 T03390119  RH  026%=      5-min Rain = 0
KST3 112149Z 16020G25KT 34/12 A3003 RMK A01 T03390119  RH  026%=      5-min Rain = 0
KST3 112150Z 16017G23KT 34/12 A3003 RMK A01 T03390120  RH  026%=      5-min Rain = 0
KST3 112151Z 16019G24KT 34/12 A3003 RMK A01 T03400120  RH  026%=      5-min Rain = 0
KST3 112152Z 16017KT 34/12 A3003 RMK A01 T03400120  RH  026%=      5-min Rain = 0
KST3 112153Z 16015KT 34/12 A3003 RMK A01 T03390122  RH  027%=      5-min Rain = 0
KST3 112154Z 16018KT 34/12 A3003 RMK A01 T03400122  RH  027%=      5-min Rain = 0
KST3 112155Z 17015KT 34/12 A3003 RMK A01 T03400123  RH  027%=      5-min Rain = 0
KST3 112156Z 17018KT 34/12 A3003 RMK A01 T03430122  RH  026%=      5-min Rain = 0
KST3 112157Z 17012KT 34/12 A3003 RMK A01 T03430121  RH  026%=      5-min Rain = 0
KST3 112158Z 18012KT 34/12 A3003 RMK A01 T03430123  RH  026%=      5-min Rain = 0
KST3 112159Z 16015G20KT 35/13 A3003 RMK A01 T03450126  RH  027%=      5-min Rain = 0
KST3 112200Z 18016KT 35/13 A3003 RMK A01 T03460125  RH  026%=      5-min Rain = 0
KST3 112201Z 18016KT 35/12 A3003 RMK A01 T03450121  RH  026%=      5-min Rain = 0
KST3 112202Z 17015KT 34/12 A3003 RMK A01 T03420123  RH  027%=      5-min Rain = 0
KST3 112203Z 19013KT 34/13 A3003 RMK A01 T03430131  RH  028%=      5-min Rain = 0
KST3 112204Z 20015KT 35/13 A3003 RMK A01 T03470130  RH  027%=      5-min Rain = 0
KST3 112205Z 18015KT 35/13 A3003 RMK A01 T03470128  RH  027%=      5-min Rain = 0
KST3 112206Z 16017KT 35/13 A3003 RMK A01 T03460125  RH  026%=      5-min Rain = 0
KST3 112207Z 15015KT 34/12 A3003 RMK A01 T03440119  RH  026%=      5-min Rain = 0
KST3 112208Z 16015KT 34/12 A3003 RMK A01 T03430121  RH  026%=      5-min Rain = 0
KST3 112209Z 16016G21KT 34/12 A3003 RMK A01 T03430119  RH  026%=      5-min Rain = 0
KST3 112210Z 16015KT 34/12 A3003 RMK A01 T03420119  RH  026%=      5-min Rain = 0
KST3 112211Z 17018KT 34/12 A3003 RMK A01 T03410121  RH  026%=      5-min Rain = 0
KST3 112212Z 17016KT 34/12 A3003 RMK A01 T03420124  RH  027%=      5-min Rain = 0
KST3 112213Z 17015KT 34/13 A3003 RMK A01 T03420126  RH  027%=      5-min Rain = 0
KST3 112214Z 17016KT 34/13 A3002 RMK A01 T03420125  RH  027%=      5-min Rain = 0
KST3 112215Z 18016KT 34/13 A3002 RMK A01 T03410126  RH  027%=      5-min Rain = 0
KST3 112216Z 18017KT 34/12 A3002 RMK A01 T03400124  RH  027%=      5-min Rain = 0
KST3 112217Z 18014KT 34/12 A3002 RMK A01 T03360122  RH  027%=      5-min Rain = 0
KST3 112218Z 16010KT 33/13 A3003 RMK A01 T03340125  RH  028%=      5-min Rain = 0
KST3 112219Z 16016G22KT 34/12 A3002 RMK A01 T03350121  RH  027%=      5-min Rain = 0
KST3 112220Z 18013G19KT 34/12 A3002 RMK A01 T03380123  RH  027%=      5-min Rain = 0
KST3 112221Z 17012G20KT 34/13 A3003 RMK A01 T03410127  RH  027%=      5-min Rain = 0
KST3 112222Z 17016KT 34/12 A3002 RMK A01 T03440124  RH  027%=      5-min Rain = 0
KST3 112223Z 15013G18KT 34/13 A3003 RMK A01 T03430127  RH  027%=      5-min Rain = 0
KST3 112224Z 14016KT 34/12 A3003 RMK A01 T03420123  RH  027%=      5-min Rain = 0
KST3 112225Z 16015KT 34/12 A3003 RMK A01 T03400120  RH  026%=      5-min Rain = 0
KST3 112226Z 15013G19KT 34/12 A3002 RMK A01 T03380122  RH  027%=      5-min Rain = 0
KST3 112227Z 16016KT 34/12 A3002 RMK A01 T03380123  RH  027%=      5-min Rain = 0
KST3 112228Z 14015KT 33/12 A3002 RMK A01 T03340119  RH  027%=      5-min Rain = 0
KST3 112229Z 15015G20KT 33/12 A3002 RMK A01 T03320120  RH  028%=      5-min Rain = 0
KST3 112230Z 15011KT 33/12 A3002 RMK A01 T03300122  RH  028%=      5-min Rain = 0
KST3 112231Z 14012KT 33/12 A3002 RMK A01 T03310123  RH  028%=      5-min Rain = 0
KST3 112232Z 15012G17KT 33/13 A3002 RMK A01 T03340125  RH  028%=      5-min Rain = 0
KST3 112233Z 15015KT 34/13 A3002 RMK A01 T03370126  RH  028%=      5-min Rain = 0
KST3 112234Z 15014KT 34/13 A3002 RMK A01 T03390126  RH  027%=      5-min Rain = 0
KST3 112235Z 15013KT 34/13 A3002 RMK A01 T03400127  RH  028%=      5-min Rain = 0
KST3 112236Z 16015KT 34/13 A3002 RMK A01 T03420128  RH  028%=      5-min Rain = 0
KST3 112237Z 17014KT 34/13 A3002 RMK A01 T03420128  RH  027%=      5-min Rain = 0
KST3 112238Z 18017KT 34/13 A3002 RMK A01 T03430127  RH  027%=      5-min Rain = 0
KST3 112239Z 18015KT 34/13 A3002 RMK A01 T03430125  RH  027%=      5-min Rain = 0
KST3 112240Z 17014KT 34/13 A3002 RMK A01 T03430127  RH  027%=      5-min Rain = 0
KST3 112241Z 18012KT 34/13 A3002 RMK A01 T03430130  RH  028%=      5-min Rain = 0
KST3 112242Z 19013KT 35/13 A3002 RMK A01 T03460130  RH  027%=      5-min Rain = 0
KST3 112243Z 19012KT 35/13 A3002 RMK A01 T03460130  RH  027%=      5-min Rain = 0
KST3 112244Z 19015KT 35/13 A3002 RMK A01 T03460130  RH  027%=      5-min Rain = 0
KST3 112245Z 19016KT 34/13 A3002 RMK A01 T03440129  RH  027%=      5-min Rain = 0
KST3 112246Z 18015KT 34/13 A3002 RMK A01 T03430133  RH  028%=      5-min Rain = 0
KST3 112247Z 18016KT 34/13 A3002 RMK A01 T03420129  RH  028%=      5-min Rain = 0
KST3 112248Z 18011KT 34/13 A3002 RMK A01 T03380129  RH  028%=      5-min Rain = 0
KST3 112249Z 18013G18KT 34/13 A3002 RMK A01 T03370132  RH  029%=      5-min Rain = 0
KST3 112250Z 17016KT 34/13 A3002 RMK A01 T03350125  RH  028%=      5-min Rain = 0
KST3 112251Z 18015G20KT 33/12 A3002 RMK A01 T03330123  RH  028%=      5-min Rain = 0
KST3 112252Z 18015KT 33/12 A3002 RMK A01 T03320123  RH  028%=      5-min Rain = 0
KST3 112253Z 18014KT 33/12 A3002 RMK A01 T03310124  RH  028%=      5-min Rain = 0
KST3 112254Z 17015KT 33/12 A3002 RMK A01 T03320124  RH  028%=      5-min Rain = 0
KST3 112255Z 17013KT 33/13 A3002 RMK A01 T03320125  RH  028%=      5-min Rain = 0
KST3 112256Z 16013KT 33/13 A3002 RMK A01 T03310125  RH  029%=      5-min Rain = 0
KST3 112257Z 17016KT 33/13 A3002 RMK A01 T03310126  RH  029%=      5-min Rain = 0
KST3 112258Z 16013G19KT 33/13 A3002 RMK A01 T03330127  RH  029%=      5-min Rain = 0
KST3 112259Z 15013KT 34/13 A3002 RMK A01 T03370129  RH  028%=      5-min Rain = 0
KST3 112300Z 17019KT 34/13 A3002 RMK A01 T03390129  RH  028%=      5-min Rain = 0
KST3 112301Z 17017G22KT 34/13 A3002 RMK A01 T03390127  RH  028%=      5-min Rain = 0
KST3 112302Z 15014KT 34/13 A3002 RMK A01 T03380128  RH  028%=      5-min Rain = 0
KST3 112303Z 15014KT 34/13 A3002 RMK A01 T03390128  RH  028%=      5-min Rain = 0
KST3 112304Z 16014KT 34/13 A3002 RMK A01 T03390128  RH  028%=      5-min Rain = 0
KST3 112305Z 17015KT 34/13 A3002 RMK A01 T03390128  RH  028%=      5-min Rain = 0
KST3 112306Z 17012KT 34/13 A3002 RMK A01 T03380129  RH  028%=      5-min Rain = 0
KST3 112307Z 17011KT 34/13 A3002 RMK A01 T03390131  RH  029%=      5-min Rain = 0
KST3 112308Z 16013KT 34/13 A3002 RMK A01 T03380131  RH  029%=      5-min Rain = 0
KST3 112309Z 16014KT 34/13 A3002 RMK A01 T03380131  RH  029%=      5-min Rain = 0
KST3 112310Z 17011KT 34/13 A3002 RMK A01 T03410134  RH  029%=      5-min Rain = 0
KST3 112311Z 17014G19KT 34/13 A3002 RMK A01 T03440134  RH  028%=      5-min Rain = 0
KST3 112312Z 18016G21KT 34/13 A3002 RMK A01 T03430134  RH  028%=      5-min Rain = 0
KST3 112313Z 17016KT 34/13 A3002 RMK A01 T03420133  RH  028%=      5-min Rain = 0
KST3 112314Z 16015KT 34/13 A3002 RMK A01 T03420134  RH  029%=      5-min Rain = 0
KST3 112315Z 16013KT 34/13 A3002 RMK A01 T03410134  RH  029%=      5-min Rain = 0
KST3 112316Z 17015KT 34/14 A3002 RMK A01 T03420137  RH  029%=      5-min Rain = 0
KST3 112317Z 18014KT 34/13 A3002 RMK A01 T03420133  RH  028%=      5-min Rain = 0
KST3 112318Z 17013KT 34/13 A3002 RMK A01 T03380132  RH  029%=      5-min Rain = 0
KST3 112319Z 16016KT 34/13 A3002 RMK A01 T03350133  RH  029%=      5-min Rain = 0
KST3 112320Z 16019KT 33/13 A3002 RMK A01 T03330129  RH  029%=      5-min Rain = 0
KST3 112321Z 17018KT 33/13 A3002 RMK A01 T03300129  RH  029%=      5-min Rain = 0
KST3 112322Z 17014KT 33/13 A3002 RMK A01 T03300131  RH  030%=      5-min Rain = 0
KST3 112323Z 17013KT 33/13 A3002 RMK A01 T03310133  RH  030%=      5-min Rain = 0
KST3 112324Z 18017KT 33/13 A3002 RMK A01 T03320131  RH  030%=      5-min Rain = 0
KST3 112325Z 18015KT 33/13 A3002 RMK A01 T03300132  RH  030%=      5-min Rain = 0
KST3 112326Z 18015KT 33/13 A3002 RMK A01 T03290133  RH  030%=      5-min Rain = 0
KST3 112327Z 17017KT 33/13 A3002 RMK A01 T03290132  RH  030%=      5-min Rain = 0
KST3 112328Z 16016KT 33/13 A3002 RMK A01 T03290131  RH  030%=      5-min Rain = 0
KST3 112329Z 16015KT 33/13 A3002 RMK A01 T03300133  RH  030%=      5-min Rain = 0
KST3 112330Z 16016KT 33/13 A3002 RMK A01 T03320133  RH  030%=      5-min Rain = 0
KST3 112331Z 15016KT 33/13 A3002 RMK A01 T03320131  RH  030%=      5-min Rain = 0
KST3 112332Z 16015KT 33/13 A3002 RMK A01 T03320132  RH  030%=      5-min Rain = 0
KST3 112333Z 16015G20KT 33/14 A3002 RMK A01 T03340135  RH  030%=      5-min Rain = 0
KST3 112334Z 16017KT 34/13 A3002 RMK A01 T03360131  RH  029%=      5-min Rain = 0
KST3 112335Z 16017KT 34/13 A3002 RMK A01 T03360133  RH  029%=      5-min Rain = 0
KST3 112336Z 16015KT 34/13 A3002 RMK A01 T03360133  RH  029%=      5-min Rain = 0
KST3 112337Z 16013KT 34/13 A3002 RMK A01 T03360130  RH  029%=      5-min Rain = 0
KST3 112338Z 16014KT 34/13 A3002 RMK A01 T03350133  RH  029%=      5-min Rain = 0
KST3 112339Z 16012KT 34/13 A3002 RMK A01 T03360133  RH  029%=      5-min Rain = 0
KST3 112340Z 17013KT 34/13 A3002 RMK A01 T03350133  RH  029%=      5-min Rain = 0
KST3 112341Z 17011KT 33/13 A3002 RMK A01 T03340134  RH  030%=      5-min Rain = 0
KST3 112342Z 17012KT 33/13 A3002 RMK A01 T03340134  RH  030%=      5-min Rain = 0
KST3 112343Z 16012KT 34/14 A3002 RMK A01 T03350135  RH  030%=      5-min Rain = 0
KST3 112344Z 16016KT 34/13 A3002 RMK A01 T03360134  RH  030%=      5-min Rain = 0
KST3 112345Z 15014KT 33/13 A3002 RMK A01 T03340132  RH  029%=      5-min Rain = 0
KST3 112346Z 17016KT 33/13 A3002 RMK A01 T03320132  RH  030%=      5-min Rain = 0
KST3 112347Z 16013KT 33/14 A3002 RMK A01 T03320136  RH  030%=      5-min Rain = 0
KST3 112348Z 16016KT 33/14 A3002 RMK A01 T03330135  RH  030%=      5-min Rain = 0
KST3 112349Z 16014KT 33/13 A3002 RMK A01 T03320132  RH  030%=      5-min Rain = 0
KST3 112350Z 16014KT 33/13 A3002 RMK A01 T03320134  RH  030%=      5-min Rain = 0
KST3 112351Z 17011KT 33/14 A3002 RMK A01 T03320137  RH  031%=      5-min Rain = 0
KST3 112352Z 18015KT 34/14 A3002 RMK A01 T03350135  RH  030%=      5-min Rain = 0
KST3 112353Z 17011KT 34/13 A3002 RMK A01 T03360134  RH  030%=      5-min Rain = 0
KST3 112354Z 15011KT 34/14 A3002 RMK A01 T03360138  RH  030%=      5-min Rain = 0
KST3 112355Z 16013KT 34/14 A3002 RMK A01 T03360136  RH  030%=      5-min Rain = 0
KST3 112356Z 17016KT 33/13 A3002 RMK A01 T03340134  RH  030%=      5-min Rain = 0
KST3 112357Z 16018KT 33/13 A3002 RMK A01 T03330133  RH  030%=      5-min Rain = 0
KST3 112358Z 17013KT 33/13 A3002 RMK A01 T03320133  RH  030%=      5-min Rain = 0
KST3 112359Z 17012KT 33/14 A3003 RMK A01 T03310136  RH  031%=      5-min Rain = 0
KST3 120000Z 17013KT 33/13 A3003 RMK A01 T03300134  RH  031%=      5-min Rain = 0
KST3 120001Z 17014KT 33/13 A3003 RMK A01 T03290134  RH  031%=      5-min Rain = 0
KST3 120002Z 17014KT 33/13 A3003 RMK A01 T03280133  RH  031%=      5-min Rain = 0
KST3 120003Z 17016KT 33/13 A3003 RMK A01 T03290134  RH  031%=      5-min Rain = 0
KST3 120004Z 17013G18KT 33/13 A3003 RMK A01 T03290133  RH  031%=      5-min Rain = 0
KST3 120005Z 17010KT 33/14 A3003 RMK A01 T03300136  RH  031%=      5-min Rain = 0
KST3 120006Z 16013G19KT 33/14 A3003 RMK A01 T03310138  RH  031%=      5-min Rain = 0
KST3 120007Z 16014KT 33/13 A3003 RMK A01 T03300134  RH  031%=      5-min Rain = 0
KST3 120008Z 16015KT 33/13 A3003 RMK A01 T03270132  RH  031%=      5-min Rain = 0
KST3 120009Z 17014KT 33/13 A3003 RMK A01 T03260132  RH  031%=      5-min Rain = 0
KST3 120010Z 16014G19KT 33/13 A3003 RMK A01 T03250133  RH  031%=      5-min Rain = 0
KST3 120011Z 15014KT 32/13 A3003 RMK A01 T03240132  RH  031%=      5-min Rain = 0
KST3 120012Z 16013KT 32/13 A3003 RMK A01 T03240133  RH  031%=      5-min Rain = 0
KST3 120013Z 16015KT 32/13 A3003 RMK A01 T03230133  RH  032%=      5-min Rain = 0
KST3 120014Z 16013KT 32/13 A3003 RMK A01 T03230133  RH  032%=      5-min Rain = 0
KST3 120015Z 17012KT 32/13 A3003 RMK A01 T03220133  RH  032%=      5-min Rain = 0
KST3 120016Z 16012KT 32/13 A3003 RMK A01 T03220134  RH  032%=      5-min Rain = 0
KST3 120017Z 16011KT 32/13 A3003 RMK A01 T03220134  RH  032%=      5-min Rain = 0
KST3 120018Z 16013G20KT 32/13 A3003 RMK A01 T03230134  RH  032%=      5-min Rain = 0
KST3 120019Z 16014KT 32/13 A3003 RMK A01 T03230134  RH  032%=      5-min Rain = 0
KST3 120020Z 16014KT 32/13 A3003 RMK A01 T03220134  RH  032%=      5-min Rain = 0
KST3 120021Z 17013KT 32/13 A3003 RMK A01 T03210133  RH  032%=      5-min Rain = 0
KST3 120022Z 16011KT 32/13 A3003 RMK A01 T03220134  RH  032%=      5-min Rain = 0
KST3 120023Z 16012KT 32/14 A3003 RMK A01 T03230135  RH  032%=      5-min Rain = 0
KST3 120024Z 18012KT 32/14 A3003 RMK A01 T03230135  RH  032%=      5-min Rain = 0
KST3 120025Z 17013KT 32/14 A3003 RMK A01 T03220135  RH  032%=      5-min Rain = 0
KST3 120026Z 17010KT 32/14 A3003 RMK A01 T03230136  RH  032%=      5-min Rain = 0
KST3 120027Z 16011KT 32/14 A3003 RMK A01 T03240139  RH  033%=      5-min Rain = 0
KST3 120028Z 16015KT 33/14 A3003 RMK A01 T03250137  RH  032%=      5-min Rain = 0
KST3 120029Z 16015KT 32/14 A3003 RMK A01 T03240135  RH  032%=      5-min Rain = 0
KST3 120030Z 16014KT 32/14 A3003 RMK A01 T03240135  RH  032%=      5-min Rain = 0
KST3 120031Z 15013KT 32/14 A3003 RMK A01 T03240135  RH  032%=      5-min Rain = 0
KST3 120032Z 16012KT 33/14 A3003 RMK A01 T03250136  RH  032%=      5-min Rain = 0
KST3 120033Z 16012KT 32/14 A3003 RMK A01 T03240137  RH  032%=      5-min Rain = 0
KST3 120034Z 16011KT 32/14 A3003 RMK A01 T03240137  RH  032%=      5-min Rain = 0
KST3 120035Z 16013KT 32/14 A3003 RMK A01 T03240137  RH  032%=      5-min Rain = 0
KST3 120036Z 15013KT 32/14 A3003 RMK A01 T03240136  RH  032%=      5-min Rain = 0
KST3 120037Z 16013KT 32/14 A3003 RMK A01 T03240136  RH  032%=      5-min Rain = 0
KST3 120038Z 16014KT 32/14 A3003 RMK A01 T03240136  RH  032%=      5-min Rain = 0
KST3 120039Z 16014KT 32/14 A3003 RMK A01 T03240135  RH  032%=      5-min Rain = 0
KST3 120040Z 17015KT 32/14 A3003 RMK A01 T03240135  RH  032%=      5-min Rain = 0
KST3 120041Z 16016KT 32/14 A3003 RMK A01 T03240135  RH  032%=      5-min Rain = 0
KST3 120042Z 16013KT 32/14 A3003 RMK A01 T03230135  RH  032%=      5-min Rain = 0
KST3 120043Z 15014KT 32/14 A3003 RMK A01 T03240136  RH  032%=      5-min Rain = 0
KST3 120044Z 16014KT 32/14 A3003 RMK A01 T03230135  RH  032%=      5-min Rain = 0
KST3 120045Z 16017KT 32/13 A3003 RMK A01 T03230134  RH  032%=      5-min Rain = 0
KST3 120046Z 16013KT 32/13 A3003 RMK A01 T03240134  RH  032%=      5-min Rain = 0
KST3 120047Z 16011KT 32/14 A3003 RMK A01 T03240136  RH  032%=      5-min Rain = 0
KST3 120048Z 16013KT 32/14 A3003 RMK A01 T03230135  RH  032%=      5-min Rain = 0
KST3 120049Z 16015G20KT 32/14 A3003 RMK A01 T03240135  RH  032%=      5-min Rain = 0
KST3 120050Z 17014KT 32/14 A3003 RMK A01 T03230135  RH  032%=      5-min Rain = 0
KST3 120051Z 17013KT 32/14 A3003 RMK A01 T03230136  RH  032%=      5-min Rain = 0
KST3 120052Z 17013KT 32/14 A3003 RMK A01 T03240137  RH  032%=      5-min Rain = 0
KST3 120053Z 17013KT 32/14 A3003 RMK A01 T03240137  RH  032%=      5-min Rain = 0
KST3 120054Z 16011KT 32/14 A3003 RMK A01 T03230137  RH  032%=      5-min Rain = 0
KST3 120055Z 16011KT 32/14 A3003 RMK A01 T03220138  RH  033%=      5-min Rain = 0
KST3 120056Z 17013KT 32/14 A3003 RMK A01 T03220138  RH  033%=      5-min Rain = 0
KST3 120057Z 16013KT 32/14 A3003 RMK A01 T03210137  RH  033%=      5-min Rain = 0
KST3 120058Z 17012KT 32/14 A3003 RMK A01 T03210138  RH  033%=      5-min Rain = 0
KST3 120059Z 17013KT 32/14 A3003 RMK A01 T03200139  RH  033%=      5-min Rain = 0
KST3 120100Z 18014KT 32/14 A3003 RMK A01 T03200138  RH  033%=      5-min Rain = 0
KST3 120101Z 17014KT 32/14 A3004 RMK A01 T03200137  RH  033%=      5-min Rain = 0
KST3 120102Z 18015KT 32/14 A3004 RMK A01 T03190136  RH  033%=      5-min Rain = 0
KST3 120103Z 17013KT 32/14 A3004 RMK A01 T03190136  RH  033%=      5-min Rain = 0
KST3 120104Z 17011KT 32/14 A3004 RMK A01 T03190137  RH  033%=      5-min Rain = 0
KST3 120105Z 17012KT 32/14 A3004 RMK A01 T03180137  RH  033%=      5-min Rain = 0
KST3 120106Z 17014KT 32/14 A3004 RMK A01 T03180136  RH  033%=      5-min Rain = 0
KST3 120107Z 16012KT 32/14 A3004 RMK A01 T03180137  RH  033%=      5-min Rain = 0
KST3 120108Z 17013KT 32/14 A3004 RMK A01 T03170136  RH  033%=      5-min Rain = 0
KST3 120109Z 17013KT 32/14 A3004 RMK A01 T03170136  RH  033%=      5-min Rain = 0
KST3 120110Z 17013KT 32/14 A3004 RMK A01 T03170136  RH  033%=      5-min Rain = 0
KST3 120111Z 17011KT 32/14 A3004 RMK A01 T03170136  RH  033%=      5-min Rain = 0
KST3 120112Z 16013KT 32/14 A3004 RMK A01 T03160136  RH  033%=      5-min Rain = 0
KST3 120113Z 16011KT 32/14 A3004 RMK A01 T03160136  RH  034%=      5-min Rain = 0
KST3 120114Z 16011KT 32/14 A3004 RMK A01 T03150136  RH  034%=      5-min Rain = 0
KST3 120115Z 16011KT 31/14 A3004 RMK A01 T03140136  RH  034%=      5-min Rain = 0
KST3 120116Z 16012KT 31/14 A3004 RMK A01 T03140136  RH  034%=      5-min Rain = 0
KST3 120117Z 16012KT 31/14 A3004 RMK A01 T03140135  RH  034%=      5-min Rain = 0
KST3 120118Z 16011KT 31/14 A3004 RMK A01 T03130135  RH  034%=      5-min Rain = 0
KST3 120119Z 16011KT 31/14 A3004 RMK A01 T03130136  RH  034%=      5-min Rain = 0
KST3 120120Z 16012KT 31/14 A3004 RMK A01 T03120135  RH  034%=      5-min Rain = 0
KST3 120121Z 16012KT 31/14 A3004 RMK A01 T03120136  RH  034%=      5-min Rain = 0
KST3 120122Z 16014KT 31/14 A3004 RMK A01 T03120136  RH  034%=      5-min Rain = 0
KST3 120123Z 16014KT 31/14 A3004 RMK A01 T03120136  RH  034%=      5-min Rain = 0
KST3 120124Z 16010KT 31/14 A3004 RMK A01 T03120136  RH  034%=      5-min Rain = 0
KST3 120125Z 16010KT 31/14 A3004 RMK A01 T03110137  RH  035%=      5-min Rain = 0
KST3 120126Z 16009KT 31/14 A3004 RMK A01 T03100137  RH  035%=      5-min Rain = 0
KST3 120127Z 16011KT 31/14 A3004 RMK A01 T03090137  RH  035%=      5-min Rain = 0
KST3 120128Z 15013G18KT 31/14 A3004 RMK A01 T03090136  RH  035%=      5-min Rain = 0
KST3 120129Z 15012KT 31/14 A3004 RMK A01 T03090136  RH  035%=      5-min Rain = 0
KST3 120130Z 16014KT 31/14 A3004 RMK A01 T03090136  RH  035%=      5-min Rain = 0
KST3 120131Z 16017KT 31/14 A3004 RMK A01 T03080135  RH  035%=      5-min Rain = 0
KST3 120132Z 16015KT 31/13 A3004 RMK A01 T03080134  RH  035%=      5-min Rain = 0
KST3 120133Z 16014KT 31/13 A3004 RMK A01 T03080134  RH  035%=      5-min Rain = 0
KST3 120134Z 16014KT 31/13 A3004 RMK A01 T03090134  RH  035%=      5-min Rain = 0
KST3 120135Z 16014KT 31/13 A3004 RMK A01 T03080134  RH  035%=      5-min Rain = 0
KST3 120136Z 16013KT 31/13 A3004 RMK A01 T03090134  RH  035%=      5-min Rain = 0
KST3 120137Z 16014G19KT 31/13 A3004 RMK A01 T03080134  RH  035%=      5-min Rain = 0
KST3 120138Z 16013KT 31/13 A3004 RMK A01 T03080134  RH  035%=      5-min Rain = 0
KST3 120139Z 16012KT 31/14 A3004 RMK A01 T03070135  RH  035%=      5-min Rain = 0
KST3 120140Z 16011KT 31/14 A3004 RMK A01 T03060135  RH  035%=      5-min Rain = 0
KST3 120141Z 16013KT 31/14 A3004 RMK A01 T03060135  RH  035%=      5-min Rain = 0
KST3 120142Z 16013KT 31/14 A3004 RMK A01 T03060135  RH  035%=      5-min Rain = 0
KST3 120143Z 16011KT 31/14 A3004 RMK A01 T03060135  RH  035%=      5-min Rain = 0
KST3 120144Z 16014KT 31/14 A3004 RMK A01 T03050135  RH  035%=      5-min Rain = 0
KST3 120145Z 16011KT 30/14 A3004 RMK A01 T03040135  RH  035%=      5-min Rain = 0
KST3 120146Z 17012KT 31/14 A3004 RMK A01 T03050135  RH  035%=      5-min Rain = 0
KST3 120147Z 16011KT 30/14 A3004 RMK A01 T03040135  RH  035%=      5-min Rain = 0
KST3 120148Z 16011KT 30/13 A3004 RMK A01 T03040134  RH  035%=      5-min Rain = 0
KST3 120149Z 16010KT 30/13 A3004 RMK A01 T03030134  RH  036%=      5-min Rain = 0
KST3 120150Z 17012KT 30/14 A3004 RMK A01 T03030135  RH  036%=      5-min Rain = 0
KST3 120151Z 16014KT 30/13 A3004 RMK A01 T03020134  RH  036%=      5-min Rain = 0
KST3 120152Z 17011KT 30/13 A3004 RMK A01 T03020134  RH  036%=      5-min Rain = 0
KST3 120153Z 17012KT 30/13 A3004 RMK A01 T03030134  RH  036%=      5-min Rain = 0
KST3 120154Z 16013KT 30/13 A3004 RMK A01 T03020134  RH  036%=      5-min Rain = 0
KST3 120155Z 17014KT 30/13 A3004 RMK A01 T03020133  RH  036%=      5-min Rain = 0
KST3 120156Z 16015KT 30/13 A3004 RMK A01 T03030133  RH  035%=      5-min Rain = 0
KST3 120157Z 16014G19KT 30/13 A3004 RMK A01 T03030133  RH  035%=      5-min Rain = 0
KST3 120158Z 16013KT 30/13 A3004 RMK A01 T03040134  RH  035%=      5-min Rain = 0
KST3 120159Z 16010KT 30/13 A3004 RMK A01 T03030134  RH  036%=      5-min Rain = 0
KST3 120200Z 16012KT 30/13 A3004 RMK A01 T03020134  RH  036%=      5-min Rain = 0
KST3 120201Z 16013KT 30/13 A3004 RMK A01 T03020133  RH  036%=      5-min Rain = 0
KST3 120202Z 16012KT 30/13 A3004 RMK A01 T03010133  RH  036%=      5-min Rain = 0
KST3 120203Z 16015KT 30/13 A3004 RMK A01 T03010133  RH  036%=      5-min Rain = 0
KST3 120204Z 16013KT 30/13 A3004 RMK A01 T03010133  RH  036%=      5-min Rain = 0
KST3 120205Z 16011KT 30/13 A3004 RMK A01 T03010133  RH  036%=      5-min Rain = 0
KST3 120206Z 16010KT 30/13 A3004 RMK A01 T03010133  RH  036%=      5-min Rain = 0
KST3 120207Z 16015KT 30/13 A3004 RMK A01 T03000133  RH  036%=      5-min Rain = 0
KST3 120208Z 16013KT 30/13 A3004 RMK A01 T03000133  RH  036%=      5-min Rain = 0
KST3 120209Z 16012KT 30/13 A3004 RMK A01 T03000133  RH  036%=      5-min Rain = 0
KST3 120210Z 16012KT 30/13 A3005 RMK A01 T03000133  RH  036%=      5-min Rain = 0
KST3 120211Z 16010KT 30/13 A3005 RMK A01 T02990133  RH  036%=      5-min Rain = 0
KST3 120212Z 16010KT 30/13 A3005 RMK A01 T02980133  RH  036%=      5-min Rain = 0
KST3 120213Z 16011KT 30/13 A3005 RMK A01 T02980133  RH  036%=      5-min Rain = 0
KST3 120214Z 16010KT 30/13 A3005 RMK A01 T02970133  RH  036%=      5-min Rain = 0
KST3 120215Z 16012KT 30/13 A3005 RMK A01 T02970133  RH  037%=      5-min Rain = 0
KST3 120216Z 16011KT 30/13 A3005 RMK A01 T02970133  RH  037%=      5-min Rain = 0
KST3 120217Z 16010KT 30/13 A3005 RMK A01 T02970133  RH  037%=      5-min Rain = 0
KST3 120218Z 17011KT 30/13 A3005 RMK A01 T02960133  RH  037%=      5-min Rain = 0
KST3 120219Z 16011KT 30/13 A3005 RMK A01 T02960133  RH  037%=      5-min Rain = 0
KST3 120220Z 16010KT 30/13 A3005 RMK A01 T02960133  RH  037%=      5-min Rain = 0
KST3 120221Z 16010KT 30/13 A3005 RMK A01 T02960133  RH  037%=      5-min Rain = 0
KST3 120222Z 16011KT 30/13 A3005 RMK A01 T02950133  RH  037%=      5-min Rain = 0
KST3 120223Z 17011KT 30/13 A3005 RMK A01 T02960133  RH  037%=      5-min Rain = 0
KST3 120224Z 17011KT 30/13 A3005 RMK A01 T02960133  RH  037%=      5-min Rain = 0
KST3 120225Z 17010KT 30/13 A3005 RMK A01 T02960133  RH  037%=      5-min Rain = 0
KST3 120226Z 17010KT 30/13 A3006 RMK A01 T02960133  RH  037%=      5-min Rain = 0
KST3 120227Z 17010KT 30/13 A3006 RMK A01 T02950133  RH  037%=      5-min Rain = 0
KST3 120228Z 17011KT 30/13 A3006 RMK A01 T02950133  RH  037%=      5-min Rain = 0
KST3 120229Z 17011KT 30/13 A3006 RMK A01 T02950133  RH  037%=      5-min Rain = 0
KST3 120230Z 17010KT 29/13 A3006 RMK A01 T02940133  RH  037%=      5-min Rain = 0
KST3 120231Z 17010KT 29/13 A3006 RMK A01 T02940134  RH  037%=      5-min Rain = 0
KST3 120232Z 17009KT 29/13 A3006 RMK A01 T02930133  RH  037%=      5-min Rain = 0
KST3 120233Z 17009KT 29/13 A3006 RMK A01 T02930134  RH  038%=      5-min Rain = 0
KST3 120234Z 17009KT 29/13 A3006 RMK A01 T02920134  RH  038%=      5-min Rain = 0
KST3 120235Z 17010KT 29/13 A3006 RMK A01 T02920134  RH  038%=      5-min Rain = 0
KST3 120236Z 17010KT 29/13 A3006 RMK A01 T02920134  RH  038%=      5-min Rain = 0
KST3 120237Z 17011KT 29/13 A3006 RMK A01 T02920133  RH  038%=      5-min Rain = 0
KST3 120238Z 17010KT 29/13 A3006 RMK A01 T02920133  RH  038%=      5-min Rain = 0
KST3 120239Z 17011KT 29/13 A3006 RMK A01 T02920134  RH  038%=      5-min Rain = 0
KST3 120240Z 17011KT 29/13 A3007 RMK A01 T02920134  RH  038%=      5-min Rain = 0
KST3 120241Z 17010KT 29/13 A3007 RMK A01 T02920134  RH  038%=      5-min Rain = 0
KST3 120242Z 17009KT 29/13 A3007 RMK A01 T02920134  RH  038%=      5-min Rain = 0
KST3 120243Z 17009KT 29/13 A3007 RMK A01 T02910134  RH  038%=      5-min Rain = 0
KST3 120244Z 17010KT 29/13 A3007 RMK A01 T02900133  RH  038%=      5-min Rain = 0
KST3 120245Z 17010KT 29/13 A3007 RMK A01 T02900133  RH  038%=      5-min Rain = 0
KST3 120246Z 17010KT 29/13 A3007 RMK A01 T02900133  RH  038%=      5-min Rain = 0
KST3 120247Z 16009KT 29/13 A3007 RMK A01 T02900133  RH  038%=      5-min Rain = 0
KST3 120248Z 16009KT 29/13 A3007 RMK A01 T02900133  RH  038%=      5-min Rain = 0
KST3 120249Z 16009KT 29/13 A3007 RMK A01 T02900134  RH  038%=      5-min Rain = 0
KST3 120250Z 16008KT 29/13 A3007 RMK A01 T02890134  RH  038%=      5-min Rain = 0
KST3 120251Z 16010KT 29/13 A3007 RMK A01 T02880133  RH  039%=      5-min Rain = 0
KST3 120252Z 16008KT 29/13 A3007 RMK A01 T02880133  RH  039%=      5-min Rain = 0
KST3 120253Z 16008KT 29/13 A3007 RMK A01 T02880134  RH  039%=      5-min Rain = 0
KST3 120254Z 16009KT 29/13 A3007 RMK A01 T02870134  RH  039%=      5-min Rain = 0
KST3 120255Z 16008KT 29/13 A3007 RMK A01 T02870134  RH  039%=      5-min Rain = 0
KST3 120256Z 16009KT 29/13 A3007 RMK A01 T02860134  RH  039%=      5-min Rain = 0
KST3 120257Z 16009KT 29/13 A3007 RMK A01 T02870134  RH  039%=      5-min Rain = 0
KST3 120258Z 16008KT 29/13 A3007 RMK A01 T02860134  RH  039%=      5-min Rain = 0
KST3 120259Z 16008KT 29/13 A3007 RMK A01 T02860134  RH  039%=      5-min Rain = 0
KST3 120300Z 16009KT 29/13 A3007 RMK A01 T02850134  RH  039%=      5-min Rain = 0
KST3 120301Z 16010KT 29/13 A3007 RMK A01 T02850134  RH  039%=      5-min Rain = 0
KST3 120302Z 16008KT 29/13 A3007 RMK A01 T02850134  RH  040%=      5-min Rain = 0
KST3 120303Z 16008KT 28/13 A3007 RMK A01 T02840134  RH  040%=      5-min Rain = 0
KST3 120304Z 16008KT 28/13 A3007 RMK A01 T02840134  RH  040%=      5-min Rain = 0
KST3 120305Z 16010KT 28/13 A3007 RMK A01 T02840134  RH  040%=      5-min Rain = 0
KST3 120306Z 16009KT 28/13 A3007 RMK A01 T02830134  RH  040%=      5-min Rain = 0
KST3 120307Z 16008KT 28/13 A3007 RMK A01 T02830134  RH  040%=      5-min Rain = 0
KST3 120308Z 16008KT 28/14 A3008 RMK A01 T02830135  RH  040%=      5-min Rain = 0
KST3 120309Z 16009KT 28/13 A3008 RMK A01 T02820134  RH  040%=      5-min Rain = 0
KST3 120310Z 16008KT 28/13 A3008 RMK A01 T02820134  RH  040%=      5-min Rain = 0
KST3 120311Z 16008KT 28/13 A3008 RMK A01 T02810134  RH  040%=      5-min Rain = 0
KST3 120312Z 16008KT 28/13 A3008 RMK A01 T02810134  RH  040%=      5-min Rain = 0
KST3 120313Z 16009KT 28/13 A3008 RMK A01 T02810134  RH  040%=      5-min Rain = 0
KST3 120314Z 16008KT 28/13 A3008 RMK A01 T02810134  RH  040%=      5-min Rain = 0
KST3 120315Z 16009KT 28/13 A3008 RMK A01 T02820134  RH  040%=      5-min Rain = 0
KST3 120316Z 16010KT 28/13 A3008 RMK A01 T02810134  RH  040%=      5-min Rain = 0
KST3 120317Z 16009KT 28/13 A3008 RMK A01 T02820134  RH  040%=      5-min Rain = 0
KST3 120318Z 16008KT 28/13 A3008 RMK A01 T02820134  RH  040%=      5-min Rain = 0
KST3 120319Z 16009KT 28/14 A3008 RMK A01 T02820135  RH  040%=      5-min Rain = 0
KST3 120320Z 16008KT 28/13 A3008 RMK A01 T02820134  RH  040%=      5-min Rain = 0
KST3 120321Z 16010KT 28/13 A3008 RMK A01 T02820134  RH  040%=      5-min Rain = 0
KST3 120322Z 15011KT 28/13 A3008 RMK A01 T02810134  RH  040%=      5-min Rain = 0
KST3 120323Z 16010KT 28/13 A3008 RMK A01 T02810134  RH  040%=      5-min Rain = 0
KST3 120324Z 16009KT 28/13 A3008 RMK A01 T02810134  RH  040%=      5-min Rain = 0
KST3 120325Z 16010KT 28/13 A3008 RMK A01 T02810134  RH  040%=      5-min Rain = 0
KST3 120326Z 15010KT 28/13 A3008 RMK A01 T02810133  RH  040%=      5-min Rain = 0
KST3 120327Z 16009KT 28/13 A3008 RMK A01 T02810133  RH  040%=      5-min Rain = 0
KST3 120328Z 15009KT 28/13 A3008 RMK A01 T02810133  RH  040%=      5-min Rain = 0
KST3 120329Z 16009KT 28/13 A3008 RMK A01 T02820134  RH  040%=      5-min Rain = 0
KST3 120330Z 16009KT 28/13 A3008 RMK A01 T02820134  RH  040%=      5-min Rain = 0
KST3 120331Z 15010KT 28/13 A3008 RMK A01 T02810134  RH  040%=      5-min Rain = 0
KST3 120332Z 16008KT 28/13 A3008 RMK A01 T02810133  RH  040%=      5-min Rain = 0
KST3 120333Z 15009KT 28/13 A3008 RMK A01 T02810134  RH  040%=      5-min Rain = 0
KST3 120334Z 15009KT 28/13 A3008 RMK A01 T02800134  RH  041%=      5-min Rain = 0
KST3 120335Z 15008KT 28/13 A3008 RMK A01 T02790134  RH  041%=      5-min Rain = 0
KST3 120336Z 15008KT 28/13 A3008 RMK A01 T02790133  RH  041%=      5-min Rain = 0
KST3 120337Z 15009KT 28/13 A3008 RMK A01 T02790133  RH  041%=      5-min Rain = 0
KST3 120338Z 15010KT 28/13 A3008 RMK A01 T02790133  RH  041%=      5-min Rain = 0
KST3 120339Z 15010KT 28/13 A3008 RMK A01 T02790133  RH  041%=      5-min Rain = 0
KST3 120340Z 15011KT 28/13 A3008 RMK A01 T02790133  RH  041%=      5-min Rain = 0
KST3 120341Z 15010KT 28/13 A3008 RMK A01 T02790133  RH  041%=      5-min Rain = 0
KST3 120342Z 15011KT 28/13 A3008 RMK A01 T02790133  RH  040%=      5-min Rain = 0
KST3 120343Z 16010KT 28/13 A3008 RMK A01 T02800133  RH  040%=      5-min Rain = 0
KST3 120344Z 15010KT 28/13 A3008 RMK A01 T02800133  RH  040%=      5-min Rain = 0
KST3 120345Z 16011KT 28/13 A3008 RMK A01 T02800132  RH  040%=      5-min Rain = 0
KST3 120346Z 15010KT 28/13 A3008 RMK A01 T02800133  RH  040%=      5-min Rain = 0
KST3 120347Z 15008KT 28/13 A3008 RMK A01 T02800133  RH  040%=      5-min Rain = 0
KST3 120348Z 15008KT 28/13 A3009 RMK A01 T02800133  RH  040%=      5-min Rain = 0
KST3 120349Z 15008KT 28/13 A3009 RMK A01 T02790133  RH  041%=      5-min Rain = 0
KST3 120350Z 15008KT 28/13 A3009 RMK A01 T02780133  RH  041%=      5-min Rain = 0
KST3 120351Z 15008KT 28/13 A3009 RMK A01 T02780133  RH  041%=      5-min Rain = 0
KST3 120352Z 15008KT 28/13 A3009 RMK A01 T02770133  RH  041%=      5-min Rain = 0
KST3 120353Z 15006KT 28/13 A3009 RMK A01 T02770133  RH  041%=      5-min Rain = 0
KST3 120354Z 14007KT 28/13 A3009 RMK A01 T02760133  RH  041%=      5-min Rain = 0
KST3 120355Z 14008KT 28/13 A3009 RMK A01 T02750133  RH  042%=      5-min Rain = 0
KST3 120356Z 15007KT 28/13 A3009 RMK A01 T02750133  RH  042%=      5-min Rain = 0
KST3 120357Z 14008KT 28/13 A3009 RMK A01 T02750133  RH  042%=      5-min Rain = 0
KST3 120358Z 15008KT 28/13 A3009 RMK A01 T02750132  RH  042%=      5-min Rain = 0
KST3 120359Z 15008KT 28/13 A3009 RMK A01 T02750132  RH  041%=      5-min Rain = 0
KST3 120400Z 15008KT 28/13 A3009 RMK A01 T02750132  RH  041%=      5-min Rain = 0
KST3 120401Z 15009KT 28/13 A3009 RMK A01 T02750132  RH  041%=      5-min Rain = 0
KST3 120402Z 15009KT 28/13 A3009 RMK A01 T02750132  RH  041%=      5-min Rain = 0
KST3 120403Z 15009KT 28/13 A3009 RMK A01 T02750132  RH  041%=      5-min Rain = 0
KST3 120404Z 15009KT 28/13 A3009 RMK A01 T02750132  RH  041%=      5-min Rain = 0
KST3 120405Z 15010KT 28/13 A3009 RMK A01 T02750132  RH  041%=      5-min Rain = 0
KST3 120406Z 15010KT 28/13 A3009 RMK A01 T02750132  RH  041%=      5-min Rain = 0
KST3 120407Z 15010KT 28/13 A3009 RMK A01 T02750132  RH  041%=      5-min Rain = 0
KST3 120408Z 15009KT 28/13 A3009 RMK A01 T02750132  RH  041%=      5-min Rain = 0
KST3 120409Z 15011KT 28/13 A3009 RMK A01 T02750132  RH  041%=      5-min Rain = 0
KST3 120410Z 15010KT 28/13 A3009 RMK A01 T02750132  RH  041%=      5-min Rain = 0
KST3 120411Z 15010KT 28/13 A3009 RMK A01 T02760132  RH  041%=      5-min Rain = 0
KST3 120412Z 15010KT 28/13 A3009 RMK A01 T02760132  RH  041%=      5-min Rain = 0
KST3 120413Z 15012KT 28/13 A3009 RMK A01 T02760132  RH  041%=      5-min Rain = 0
KST3 120414Z 15012KT 28/13 A3009 RMK A01 T02760132  RH  041%=      5-min Rain = 0
KST3 120415Z 15011KT 28/13 A3009 RMK A01 T02760132  RH  041%=      5-min Rain = 0
KST3 120416Z 15010KT 28/13 A3009 RMK A01 T02770132  RH  041%=      5-min Rain = 0
KST3 120417Z 15011KT 28/13 A3009 RMK A01 T02770132  RH  041%=      5-min Rain = 0
KST3 120418Z 15010KT 28/13 A3009 RMK A01 T02770132  RH  041%=      5-min Rain = 0
KST3 120419Z 15010KT 28/13 A301 RMK A01 T02770132  RH  041%=      5-min Rain = 0
KST3 120420Z 15011KT 28/13 A301 RMK A01 T02760132  RH  041%=      5-min Rain = 0
KST3 120421Z 15010KT 28/13 A301 RMK A01 T02750132  RH  041%=      5-min Rain = 0
KST3 120422Z 15010KT 28/13 A301 RMK A01 T02750132  RH  041%=      5-min Rain = 0
KST3 120423Z 15009KT 28/13 A301 RMK A01 T02750133  RH  041%=      5-min Rain = 0
KST3 120424Z 15010KT 28/13 A301 RMK A01 T02750133  RH  042%=      5-min Rain = 0
KST3 120425Z 15010KT 27/13 A301 RMK A01 T02740132  RH  042%=      5-min Rain = 0
KST3 120426Z 15009KT 27/13 A301 RMK A01 T02740132  RH  042%=      5-min Rain = 0
KST3 120427Z 15009KT 27/13 A301 RMK A01 T02740133  RH  042%=      5-min Rain = 0
KST3 120428Z 15009KT 27/13 A301 RMK A01 T02740133  RH  042%=      5-min Rain = 0
KST3 120429Z 15009KT 27/13 A301 RMK A01 T02740133  RH  042%=      5-min Rain = 0
KST3 120430Z 15009KT 27/13 A301 RMK A01 T02740133  RH  042%=      5-min Rain = 0
KST3 120431Z 15010KT 27/13 A301 RMK A01 T02740133  RH  042%=      5-min Rain = 0
KST3 120432Z 15010KT 27/13 A301 RMK A01 T02740133  RH  042%=      5-min Rain = 0
KST3 120433Z 15010KT 27/13 A301 RMK A01 T02740133  RH  042%=      5-min Rain = 0
KST3 120434Z 15010KT 27/13 A301 RMK A01 T02740133  RH  042%=      5-min Rain = 0
KST3 120435Z 15011KT 27/13 A301 RMK A01 T02740134  RH  042%=      5-min Rain = 0
KST3 120436Z 15010KT 27/13 A301 RMK A01 T02740134  RH  042%=      5-min Rain = 0
KST3 120437Z 15010KT 27/13 A301 RMK A01 T02740134  RH  042%=      5-min Rain = 0
KST3 120438Z 15010KT 27/13 A301 RMK A01 T02740134  RH  042%=      5-min Rain = 0
KST3 120439Z 15010KT 27/14 A301 RMK A01 T02740135  RH  042%=      5-min Rain = 0
KST3 120440Z 15010KT 27/14 A301 RMK A01 T02730135  RH  042%=      5-min Rain = 0
KST3 120441Z 15010KT 27/13 A301 RMK A01 T02730134  RH  042%=      5-min Rain = 0
KST3 120442Z 15010KT 27/14 A301 RMK A01 T02730135  RH  043%=      5-min Rain = 0
KST3 120443Z 15010KT 27/14 A301 RMK A01 T02730135  RH  043%=      5-min Rain = 0
KST3 120444Z 15009KT 27/14 A301 RMK A01 T02730135  RH  043%=      5-min Rain = 0
KST3 120445Z 15011KT 27/14 A301 RMK A01 T02730135  RH  043%=      5-min Rain = 0
KST3 120446Z 15011KT 27/14 A301 RMK A01 T02730135  RH  043%=      5-min Rain = 0
KST3 120447Z 15010KT 27/14 A301 RMK A01 T02740135  RH  043%=      5-min Rain = 0
KST3 120448Z 15011KT 27/14 A301 RMK A01 T02740135  RH  043%=      5-min Rain = 0
KST3 120449Z 15010KT 27/14 A301 RMK A01 T02740136  RH  043%=      5-min Rain = 0
KST3 120450Z 15009KT 27/14 A301 RMK A01 T02740136  RH  043%=      5-min Rain = 0
KST3 120451Z 16010KT 27/14 A301 RMK A01 T02730136  RH  043%=      5-min Rain = 0
KST3 120452Z 15010KT 27/14 A301 RMK A01 T02730136  RH  043%=      5-min Rain = 0
KST3 120453Z 15010KT 27/14 A301 RMK A01 T02730136  RH  043%=      5-min Rain = 0
KST3 120454Z 15009KT 27/14 A301 RMK A01 T02730137  RH  043%=      5-min Rain = 0
KST3 120455Z 16010KT 27/14 A301 RMK A01 T02730137  RH  043%=      5-min Rain = 0
KST3 120456Z 15010KT 27/14 A301 RMK A01 T02720137  RH  043%=      5-min Rain = 0
KST3 120457Z 16010KT 27/14 A301 RMK A01 T02720137  RH  043%=      5-min Rain = 0
KST3 120458Z 15009KT 27/14 A301 RMK A01 T02720137  RH  043%=      5-min Rain = 0
KST3 120459Z 15009KT 27/14 A301 RMK A01 T02730137  RH  043%=      5-min Rain = 0

Page generated in 0.038 seconds.